<?xml version="1.0" encoding="UTF-8" standalone="no" ?>
<gpx xmlns="http://www.topografix.com/GPX/1/1" xmlns:xsi="http://www.w3.org/2001/XMLSchema-instance" xsi:schemaLocation="http://www.topografix.com/GPX/1/1 http://www.topografix.com/GPX/1/1/gpx.xsd" version="1.1" creator="VisuGPX - https://www.visugpx.com">
  <metadata>
    <name> étapes en Corse</name>
    <desc><![CDATA[Etape 1 les Agriates
Etape 2 îles Rousse-Calvi
Etape 3  Galeria Scandola]]></desc>
  </metadata>
  <wpt lat="43.22555" lon="6.44935">
    <ele>54</ele>
    <name><![CDATA[parking]]></name>
    <desc><![CDATA[16-MAI-15 9:26:59]]></desc>
    <cmt><![CDATA[16-MAI-15 9:26:59]]></cmt>
    <type><![CDATA[user]]></type>
  </wpt>
  <wpt lat="43.23505" lon="6.4006">
    <ele>423</ele>
    <name><![CDATA[parking02]]></name>
    <desc><![CDATA[16-MAI-15 12:19:33]]></desc>
    <cmt><![CDATA[16-MAI-15 12:19:33]]></cmt>
    <type><![CDATA[user]]></type>
  </wpt>
  <wpt lat="43.21304" lon="6.4631">
    <ele>42</ele>
    <name><![CDATA[piste]]></name>
    <desc><![CDATA[Chemin]]></desc>
    <cmt><![CDATA[Chemin]]></cmt>
    <type><![CDATA[user]]></type>
  </wpt>
  <trk>
    <name><![CDATA[Tracé 003]]></name>
    <trkseg>
      <trkpt lat="43.08582" lon="6.05333">
        <ele>55.950172424316</ele>
        <time>2017-04-17T09:51:58Z</time>
      </trkpt>
      <trkpt lat="43.08586" lon="6.05336">
        <ele>56.014854431152</ele>
        <time>2017-04-17T09:52:00Z</time>
      </trkpt>
      <trkpt lat="43.08589" lon="6.05338">
        <ele>56.121440887451</ele>
        <time>2017-04-17T09:52:02Z</time>
      </trkpt>
      <trkpt lat="43.08594" lon="6.05338">
        <ele>56.30078125</ele>
        <time>2017-04-17T09:52:05Z</time>
      </trkpt>
      <trkpt lat="43.08598" lon="6.05339">
        <ele>56.497428894043</ele>
        <time>2017-04-17T09:52:07Z</time>
      </trkpt>
      <trkpt lat="43.08604" lon="6.05342">
        <ele>56.847038269043</ele>
        <time>2017-04-17T09:52:10Z</time>
      </trkpt>
      <trkpt lat="43.08612" lon="6.05345">
        <ele>57.297660827637</ele>
        <time>2017-04-17T09:52:13Z</time>
      </trkpt>
      <trkpt lat="43.08615" lon="6.05348">
        <ele>57.719917297363</ele>
        <time>2017-04-17T09:52:15Z</time>
      </trkpt>
      <trkpt lat="43.08621" lon="6.05353">
        <ele>58.035034179688</ele>
        <time>2017-04-17T09:52:18Z</time>
      </trkpt>
      <trkpt lat="43.08624" lon="6.05357">
        <ele>58.219890594482</ele>
        <time>2017-04-17T09:52:20Z</time>
      </trkpt>
      <trkpt lat="43.08629" lon="6.05364">
        <ele>58.264476776123</ele>
        <time>2017-04-17T09:52:23Z</time>
      </trkpt>
      <trkpt lat="43.08635" lon="6.05369">
        <ele>58.155693054199</ele>
        <time>2017-04-17T09:52:26Z</time>
      </trkpt>
      <trkpt lat="43.08638" lon="6.05369">
        <ele>58.098064422607</ele>
        <time>2017-04-17T09:52:28Z</time>
      </trkpt>
      <trkpt lat="43.08644" lon="6.05371">
        <ele>58.097503662109</ele>
        <time>2017-04-17T09:52:31Z</time>
      </trkpt>
      <trkpt lat="43.08651" lon="6.05377">
        <ele>58.100486755371</ele>
        <time>2017-04-17T09:52:34Z</time>
      </trkpt>
      <trkpt lat="43.08657" lon="6.05381">
        <ele>58.141914367676</ele>
        <time>2017-04-17T09:52:37Z</time>
      </trkpt>
      <trkpt lat="43.0866" lon="6.05383">
        <ele>58.18318939209</ele>
        <time>2017-04-17T09:52:39Z</time>
      </trkpt>
      <trkpt lat="43.08664" lon="6.05386">
        <ele>58.123069763184</ele>
        <time>2017-04-17T09:52:41Z</time>
      </trkpt>
      <trkpt lat="43.08667" lon="6.05392">
        <ele>57.893970489502</ele>
        <time>2017-04-17T09:52:44Z</time>
      </trkpt>
      <trkpt lat="43.08673" lon="6.05395">
        <ele>57.746448516846</ele>
        <time>2017-04-17T09:52:47Z</time>
      </trkpt>
      <trkpt lat="43.08677" lon="6.05397">
        <ele>57.663536071777</ele>
        <time>2017-04-17T09:52:49Z</time>
      </trkpt>
      <trkpt lat="43.08682" lon="6.05402">
        <ele>57.645587921143</ele>
        <time>2017-04-17T09:52:52Z</time>
      </trkpt>
      <trkpt lat="43.08687" lon="6.05403">
        <ele>57.755432128906</ele>
        <time>2017-04-17T09:52:54Z</time>
      </trkpt>
      <trkpt lat="43.08693" lon="6.05404">
        <ele>58.115348815918</ele>
        <time>2017-04-17T09:52:57Z</time>
      </trkpt>
      <trkpt lat="43.08697" lon="6.05406">
        <ele>58.494667053223</ele>
        <time>2017-04-17T09:52:59Z</time>
      </trkpt>
      <trkpt lat="43.08702" lon="6.0541">
        <ele>58.821544647217</ele>
        <time>2017-04-17T09:53:02Z</time>
      </trkpt>
      <trkpt lat="43.08707" lon="6.05417">
        <ele>58.98726272583</ele>
        <time>2017-04-17T09:53:05Z</time>
      </trkpt>
      <trkpt lat="43.0871" lon="6.05424">
        <ele>59.019714355469</ele>
        <time>2017-04-17T09:53:08Z</time>
      </trkpt>
      <trkpt lat="43.08712" lon="6.0543">
        <ele>58.887470245361</ele>
        <time>2017-04-17T09:53:10Z</time>
      </trkpt>
      <trkpt lat="43.08714" lon="6.05435">
        <ele>58.646034240723</ele>
        <time>2017-04-17T09:53:12Z</time>
      </trkpt>
      <trkpt lat="43.08718" lon="6.05442">
        <ele>58.404350280762</ele>
        <time>2017-04-17T09:53:15Z</time>
      </trkpt>
      <trkpt lat="43.08722" lon="6.05447">
        <ele>58.323223114014</ele>
        <time>2017-04-17T09:53:18Z</time>
      </trkpt>
      <trkpt lat="43.08726" lon="6.05452">
        <ele>58.300678253174</ele>
        <time>2017-04-17T09:53:21Z</time>
      </trkpt>
      <trkpt lat="43.08729" lon="6.05456">
        <ele>58.326805114746</ele>
        <time>2017-04-17T09:53:23Z</time>
      </trkpt>
      <trkpt lat="43.08733" lon="6.05462">
        <ele>58.402839660645</ele>
        <time>2017-04-17T09:53:26Z</time>
      </trkpt>
      <trkpt lat="43.08735" lon="6.05466">
        <ele>58.49193572998</ele>
        <time>2017-04-17T09:53:28Z</time>
      </trkpt>
      <trkpt lat="43.08739" lon="6.05472">
        <ele>58.555511474609</ele>
        <time>2017-04-17T09:53:31Z</time>
      </trkpt>
      <trkpt lat="43.08743" lon="6.05477">
        <ele>58.634178161621</ele>
        <time>2017-04-17T09:53:34Z</time>
      </trkpt>
      <trkpt lat="43.08745" lon="6.0548">
        <ele>58.718086242676</ele>
        <time>2017-04-17T09:53:36Z</time>
      </trkpt>
      <trkpt lat="43.08748" lon="6.05483">
        <ele>58.84024810791</ele>
        <time>2017-04-17T09:53:38Z</time>
      </trkpt>
      <trkpt lat="43.08752" lon="6.05489">
        <ele>58.991020202637</ele>
        <time>2017-04-17T09:53:41Z</time>
      </trkpt>
      <trkpt lat="43.08757" lon="6.05495">
        <ele>59.194725036621</ele>
        <time>2017-04-17T09:53:44Z</time>
      </trkpt>
      <trkpt lat="43.08762" lon="6.05499">
        <ele>59.409149169922</ele>
        <time>2017-04-17T09:53:47Z</time>
      </trkpt>
      <trkpt lat="43.08767" lon="6.05503">
        <ele>59.68217086792</ele>
        <time>2017-04-17T09:53:50Z</time>
      </trkpt>
      <trkpt lat="43.08771" lon="6.05505">
        <ele>60.005279541016</ele>
        <time>2017-04-17T09:53:52Z</time>
      </trkpt>
      <trkpt lat="43.08776" lon="6.05508">
        <ele>60.425102233887</ele>
        <time>2017-04-17T09:53:55Z</time>
      </trkpt>
      <trkpt lat="43.0878" lon="6.05509">
        <ele>60.845092773438</ele>
        <time>2017-04-17T09:53:57Z</time>
      </trkpt>
      <trkpt lat="43.08784" lon="6.05513">
        <ele>61.275611877441</ele>
        <time>2017-04-17T09:54:00Z</time>
      </trkpt>
      <trkpt lat="43.08789" lon="6.05517">
        <ele>61.687126159668</ele>
        <time>2017-04-17T09:54:03Z</time>
      </trkpt>
      <trkpt lat="43.08791" lon="6.05522">
        <ele>61.984008789062</ele>
        <time>2017-04-17T09:54:05Z</time>
      </trkpt>
      <trkpt lat="43.08793" lon="6.05529">
        <ele>62.072345733643</ele>
        <time>2017-04-17T09:54:08Z</time>
      </trkpt>
      <trkpt lat="43.08796" lon="6.05532">
        <ele>62.150035858154</ele>
        <time>2017-04-17T09:54:10Z</time>
      </trkpt>
      <trkpt lat="43.08804" lon="6.05533">
        <ele>62.355781555176</ele>
        <time>2017-04-17T09:54:13Z</time>
      </trkpt>
      <trkpt lat="43.08807" lon="6.05534">
        <ele>62.570667266846</ele>
        <time>2017-04-17T09:54:15Z</time>
      </trkpt>
      <trkpt lat="43.08809" lon="6.05536">
        <ele>62.833953857422</ele>
        <time>2017-04-17T09:54:17Z</time>
      </trkpt>
      <trkpt lat="43.08814" lon="6.05542">
        <ele>63.200531005859</ele>
        <time>2017-04-17T09:54:20Z</time>
      </trkpt>
      <trkpt lat="43.08817" lon="6.05544">
        <ele>63.55785369873</ele>
        <time>2017-04-17T09:54:22Z</time>
      </trkpt>
      <trkpt lat="43.08821" lon="6.05548">
        <ele>63.752807617188</ele>
        <time>2017-04-17T09:54:24Z</time>
      </trkpt>
      <trkpt lat="43.08827" lon="6.05551">
        <ele>63.978172302246</ele>
        <time>2017-04-17T09:54:27Z</time>
      </trkpt>
      <trkpt lat="43.08832" lon="6.05555">
        <ele>64.231628417969</ele>
        <time>2017-04-17T09:54:30Z</time>
      </trkpt>
      <trkpt lat="43.08836" lon="6.05557">
        <ele>64.601196289062</ele>
        <time>2017-04-17T09:54:32Z</time>
      </trkpt>
      <trkpt lat="43.08842" lon="6.0556">
        <ele>65.183563232422</ele>
        <time>2017-04-17T09:54:35Z</time>
      </trkpt>
      <trkpt lat="43.08846" lon="6.05562">
        <ele>65.901229858398</ele>
        <time>2017-04-17T09:54:37Z</time>
      </trkpt>
      <trkpt lat="43.08851" lon="6.05566">
        <ele>66.694686889648</ele>
        <time>2017-04-17T09:54:40Z</time>
      </trkpt>
      <trkpt lat="43.08856" lon="6.05568">
        <ele>67.62442779541</ele>
        <time>2017-04-17T09:54:43Z</time>
      </trkpt>
      <trkpt lat="43.0886" lon="6.0557">
        <ele>68.567977905273</ele>
        <time>2017-04-17T09:54:45Z</time>
      </trkpt>
      <trkpt lat="43.08866" lon="6.05571">
        <ele>69.553115844727</ele>
        <time>2017-04-17T09:54:48Z</time>
      </trkpt>
      <trkpt lat="43.0887" lon="6.05571">
        <ele>70.561447143555</ele>
        <time>2017-04-17T09:54:50Z</time>
      </trkpt>
      <trkpt lat="43.08875" lon="6.0557">
        <ele>71.671348571777</ele>
        <time>2017-04-17T09:54:53Z</time>
      </trkpt>
      <trkpt lat="43.0888" lon="6.05569">
        <ele>72.875061035156</ele>
        <time>2017-04-17T09:54:56Z</time>
      </trkpt>
      <trkpt lat="43.08883" lon="6.0557">
        <ele>74.062065124512</ele>
        <time>2017-04-17T09:54:58Z</time>
      </trkpt>
      <trkpt lat="43.08887" lon="6.05572">
        <ele>75.100112915039</ele>
        <time>2017-04-17T09:55:00Z</time>
      </trkpt>
      <trkpt lat="43.08891" lon="6.05577">
        <ele>75.996879577637</ele>
        <time>2017-04-17T09:55:03Z</time>
      </trkpt>
      <trkpt lat="43.08891" lon="6.05582">
        <ele>76.474266052246</ele>
        <time>2017-04-17T09:55:05Z</time>
      </trkpt>
      <trkpt lat="43.08889" lon="6.05588">
        <ele>76.60816192627</ele>
        <time>2017-04-17T09:55:07Z</time>
      </trkpt>
      <trkpt lat="43.08888" lon="6.05596">
        <ele>76.576477050781</ele>
        <time>2017-04-17T09:55:10Z</time>
      </trkpt>
      <trkpt lat="43.08887" lon="6.05601">
        <ele>76.398239135742</ele>
        <time>2017-04-17T09:55:12Z</time>
      </trkpt>
      <trkpt lat="43.08886" lon="6.0561">
        <ele>76.15030670166</ele>
        <time>2017-04-17T09:55:15Z</time>
      </trkpt>
      <trkpt lat="43.08884" lon="6.05617">
        <ele>75.96989440918</ele>
        <time>2017-04-17T09:55:18Z</time>
      </trkpt>
      <trkpt lat="43.08884" lon="6.05622">
        <ele>75.850524902344</ele>
        <time>2017-04-17T09:55:20Z</time>
      </trkpt>
      <trkpt lat="43.08884" lon="6.05631">
        <ele>75.772567749023</ele>
        <time>2017-04-17T09:55:23Z</time>
      </trkpt>
      <trkpt lat="43.08883" lon="6.05638">
        <ele>75.69849395752</ele>
        <time>2017-04-17T09:55:26Z</time>
      </trkpt>
      <trkpt lat="43.08883" lon="6.05643">
        <ele>75.671257019043</ele>
        <time>2017-04-17T09:55:28Z</time>
      </trkpt>
      <trkpt lat="43.08883" lon="6.0565">
        <ele>75.749084472656</ele>
        <time>2017-04-17T09:55:31Z</time>
      </trkpt>
      <trkpt lat="43.08883" lon="6.05655">
        <ele>75.820838928223</ele>
        <time>2017-04-17T09:55:33Z</time>
      </trkpt>
      <trkpt lat="43.08882" lon="6.05659">
        <ele>75.872512817383</ele>
        <time>2017-04-17T09:55:35Z</time>
      </trkpt>
      <trkpt lat="43.08883" lon="6.05665">
        <ele>76.013450622559</ele>
        <time>2017-04-17T09:55:38Z</time>
      </trkpt>
      <trkpt lat="43.08886" lon="6.05672">
        <ele>76.33309173584</ele>
        <time>2017-04-17T09:55:41Z</time>
      </trkpt>
      <trkpt lat="43.08887" lon="6.05677">
        <ele>76.796836853027</ele>
        <time>2017-04-17T09:55:43Z</time>
      </trkpt>
      <trkpt lat="43.08889" lon="6.05681">
        <ele>77.400611877441</ele>
        <time>2017-04-17T09:55:45Z</time>
      </trkpt>
      <trkpt lat="43.08892" lon="6.05687">
        <ele>78.208221435547</ele>
        <time>2017-04-17T09:55:48Z</time>
      </trkpt>
      <trkpt lat="43.08895" lon="6.05693">
        <ele>79.149978637695</ele>
        <time>2017-04-17T09:55:51Z</time>
      </trkpt>
      <trkpt lat="43.08901" lon="6.05695">
        <ele>80.17121887207</ele>
        <time>2017-04-17T09:55:54Z</time>
      </trkpt>
      <trkpt lat="43.08905" lon="6.05698">
        <ele>81.196235656738</ele>
        <time>2017-04-17T09:55:56Z</time>
      </trkpt>
      <trkpt lat="43.08908" lon="6.05706">
        <ele>82.254501342773</ele>
        <time>2017-04-17T09:55:59Z</time>
      </trkpt>
      <trkpt lat="43.0891" lon="6.05713">
        <ele>83.215759277344</ele>
        <time>2017-04-17T09:56:02Z</time>
      </trkpt>
      <trkpt lat="43.08911" lon="6.05718">
        <ele>84.003280639648</ele>
        <time>2017-04-17T09:56:04Z</time>
      </trkpt>
      <trkpt lat="43.08912" lon="6.05725">
        <ele>84.567314147949</ele>
        <time>2017-04-17T09:56:07Z</time>
      </trkpt>
      <trkpt lat="43.08915" lon="6.05733">
        <ele>85.04483795166</ele>
        <time>2017-04-17T09:56:10Z</time>
      </trkpt>
      <trkpt lat="43.08918" lon="6.05736">
        <ele>85.493949890137</ele>
        <time>2017-04-17T09:56:12Z</time>
      </trkpt>
      <trkpt lat="43.0892" lon="6.05742">
        <ele>85.984573364258</ele>
        <time>2017-04-17T09:56:15Z</time>
      </trkpt>
      <trkpt lat="43.08923" lon="6.05748">
        <ele>86.61238861084</ele>
        <time>2017-04-17T09:56:18Z</time>
      </trkpt>
      <trkpt lat="43.08924" lon="6.05752">
        <ele>87.264869689941</ele>
        <time>2017-04-17T09:56:20Z</time>
      </trkpt>
      <trkpt lat="43.08926" lon="6.05757">
        <ele>87.931602478027</ele>
        <time>2017-04-17T09:56:23Z</time>
      </trkpt>
      <trkpt lat="43.08927" lon="6.05762">
        <ele>88.506492614746</ele>
        <time>2017-04-17T09:56:25Z</time>
      </trkpt>
      <trkpt lat="43.08928" lon="6.05768">
        <ele>89.031219482422</ele>
        <time>2017-04-17T09:56:28Z</time>
      </trkpt>
      <trkpt lat="43.08928" lon="6.05776">
        <ele>89.346145629883</ele>
        <time>2017-04-17T09:56:31Z</time>
      </trkpt>
      <trkpt lat="43.0893" lon="6.0578">
        <ele>89.666320800781</ele>
        <time>2017-04-17T09:56:33Z</time>
      </trkpt>
      <trkpt lat="43.08933" lon="6.05785">
        <ele>90.02766418457</ele>
        <time>2017-04-17T09:56:36Z</time>
      </trkpt>
      <trkpt lat="43.08935" lon="6.05792">
        <ele>90.425262451172</ele>
        <time>2017-04-17T09:56:39Z</time>
      </trkpt>
      <trkpt lat="43.08936" lon="6.05797">
        <ele>90.773803710938</ele>
        <time>2017-04-17T09:56:41Z</time>
      </trkpt>
      <trkpt lat="43.08939" lon="6.05803">
        <ele>91.246002197266</ele>
        <time>2017-04-17T09:56:44Z</time>
      </trkpt>
      <trkpt lat="43.08941" lon="6.05808">
        <ele>91.724143981934</ele>
        <time>2017-04-17T09:56:46Z</time>
      </trkpt>
      <trkpt lat="43.08945" lon="6.05814">
        <ele>92.197250366211</ele>
        <time>2017-04-17T09:56:49Z</time>
      </trkpt>
      <trkpt lat="43.08948" lon="6.05818">
        <ele>92.678993225098</ele>
        <time>2017-04-17T09:56:51Z</time>
      </trkpt>
      <trkpt lat="43.08951" lon="6.05822">
        <ele>93.203201293945</ele>
        <time>2017-04-17T09:56:53Z</time>
      </trkpt>
      <trkpt lat="43.08954" lon="6.05826">
        <ele>93.705490112305</ele>
        <time>2017-04-17T09:56:56Z</time>
      </trkpt>
      <trkpt lat="43.08959" lon="6.0583">
        <ele>94.268775939941</ele>
        <time>2017-04-17T09:56:59Z</time>
      </trkpt>
      <trkpt lat="43.08964" lon="6.05834">
        <ele>94.810073852539</ele>
        <time>2017-04-17T09:57:02Z</time>
      </trkpt>
      <trkpt lat="43.08967" lon="6.05839">
        <ele>95.359298706055</ele>
        <time>2017-04-17T09:57:05Z</time>
      </trkpt>
      <trkpt lat="43.0897" lon="6.05845">
        <ele>95.894561767578</ele>
        <time>2017-04-17T09:57:08Z</time>
      </trkpt>
      <trkpt lat="43.08972" lon="6.05849">
        <ele>96.386154174805</ele>
        <time>2017-04-17T09:57:10Z</time>
      </trkpt>
      <trkpt lat="43.08975" lon="6.05855">
        <ele>96.788497924805</ele>
        <time>2017-04-17T09:57:13Z</time>
      </trkpt>
      <trkpt lat="43.08978" lon="6.0586">
        <ele>97.085807800293</ele>
        <time>2017-04-17T09:57:15Z</time>
      </trkpt>
      <trkpt lat="43.08981" lon="6.05866">
        <ele>97.308853149414</ele>
        <time>2017-04-17T09:57:18Z</time>
      </trkpt>
      <trkpt lat="43.08984" lon="6.0587">
        <ele>97.472633361816</ele>
        <time>2017-04-17T09:57:20Z</time>
      </trkpt>
      <trkpt lat="43.08987" lon="6.05876">
        <ele>97.607437133789</ele>
        <time>2017-04-17T09:57:23Z</time>
      </trkpt>
      <trkpt lat="43.0899" lon="6.05879">
        <ele>97.664527893066</ele>
        <time>2017-04-17T09:57:25Z</time>
      </trkpt>
      <trkpt lat="43.08994" lon="6.05885">
        <ele>97.677505493164</ele>
        <time>2017-04-17T09:57:28Z</time>
      </trkpt>
      <trkpt lat="43.08995" lon="6.05889">
        <ele>97.626098632812</ele>
        <time>2017-04-17T09:57:30Z</time>
      </trkpt>
      <trkpt lat="43.08997" lon="6.05893">
        <ele>97.510604858398</ele>
        <time>2017-04-17T09:57:32Z</time>
      </trkpt>
      <trkpt lat="43.09" lon="6.05899">
        <ele>97.284690856934</ele>
        <time>2017-04-17T09:57:35Z</time>
      </trkpt>
      <trkpt lat="43.09002" lon="6.05904">
        <ele>97.020309448242</ele>
        <time>2017-04-17T09:57:37Z</time>
      </trkpt>
      <trkpt lat="43.09006" lon="6.05909">
        <ele>96.718612670898</ele>
        <time>2017-04-17T09:57:40Z</time>
      </trkpt>
      <trkpt lat="43.09011" lon="6.05909">
        <ele>96.524024963379</ele>
        <time>2017-04-17T09:57:43Z</time>
      </trkpt>
      <trkpt lat="43.09016" lon="6.05903">
        <ele>96.572685241699</ele>
        <time>2017-04-17T09:57:46Z</time>
      </trkpt>
      <trkpt lat="43.09019" lon="6.059">
        <ele>96.821075439453</ele>
        <time>2017-04-17T09:57:48Z</time>
      </trkpt>
      <trkpt lat="43.09025" lon="6.05898">
        <ele>97.25129699707</ele>
        <time>2017-04-17T09:57:51Z</time>
      </trkpt>
      <trkpt lat="43.09029" lon="6.05897">
        <ele>97.827209472656</ele>
        <time>2017-04-17T09:57:53Z</time>
      </trkpt>
      <trkpt lat="43.09032" lon="6.05897">
        <ele>98.382797241211</ele>
        <time>2017-04-17T09:57:55Z</time>
      </trkpt>
      <trkpt lat="43.09035" lon="6.05896">
        <ele>98.813598632812</ele>
        <time>2017-04-17T09:57:57Z</time>
      </trkpt>
      <trkpt lat="43.0904" lon="6.05893">
        <ele>99.301338195801</ele>
        <time>2017-04-17T09:58:00Z</time>
      </trkpt>
      <trkpt lat="43.09043" lon="6.0589">
        <ele>99.797477722168</ele>
        <time>2017-04-17T09:58:02Z</time>
      </trkpt>
      <trkpt lat="43.09048" lon="6.05885">
        <ele>100.42569732666</ele>
        <time>2017-04-17T09:58:05Z</time>
      </trkpt>
      <trkpt lat="43.09053" lon="6.05884">
        <ele>101.11139678955</ele>
        <time>2017-04-17T09:58:08Z</time>
      </trkpt>
      <trkpt lat="43.09057" lon="6.05886">
        <ele>101.72821807861</ele>
        <time>2017-04-17T09:58:11Z</time>
      </trkpt>
      <trkpt lat="43.09059" lon="6.05888">
        <ele>102.18306732178</ele>
        <time>2017-04-17T09:58:13Z</time>
      </trkpt>
      <trkpt lat="43.09064" lon="6.05888">
        <ele>102.56739807129</ele>
        <time>2017-04-17T09:58:16Z</time>
      </trkpt>
      <trkpt lat="43.09068" lon="6.05885">
        <ele>102.91015625</ele>
        <time>2017-04-17T09:58:19Z</time>
      </trkpt>
      <trkpt lat="43.09072" lon="6.05884">
        <ele>103.2420501709</ele>
        <time>2017-04-17T09:58:21Z</time>
      </trkpt>
      <trkpt lat="43.09076" lon="6.05885">
        <ele>103.60795593262</ele>
        <time>2017-04-17T09:58:24Z</time>
      </trkpt>
      <trkpt lat="43.09077" lon="6.05885">
        <ele>104.01021575928</ele>
        <time>2017-04-17T09:58:26Z</time>
      </trkpt>
      <trkpt lat="43.09079" lon="6.05885">
        <ele>104.38006591797</ele>
        <time>2017-04-17T09:58:28Z</time>
      </trkpt>
      <trkpt lat="43.09084" lon="6.05884">
        <ele>104.67736816406</ele>
        <time>2017-04-17T09:58:31Z</time>
      </trkpt>
      <trkpt lat="43.09087" lon="6.05884">
        <ele>104.81953430176</ele>
        <time>2017-04-17T09:58:34Z</time>
      </trkpt>
      <trkpt lat="43.0909" lon="6.05885">
        <ele>104.85247802734</ele>
        <time>2017-04-17T09:58:36Z</time>
      </trkpt>
      <trkpt lat="43.09096" lon="6.05884">
        <ele>104.79731750488</ele>
        <time>2017-04-17T09:58:39Z</time>
      </trkpt>
      <trkpt lat="43.091" lon="6.05884">
        <ele>104.64637756348</ele>
        <time>2017-04-17T09:58:41Z</time>
      </trkpt>
      <trkpt lat="43.09106" lon="6.05884">
        <ele>104.30619049072</ele>
        <time>2017-04-17T09:58:44Z</time>
      </trkpt>
      <trkpt lat="43.09111" lon="6.05883">
        <ele>103.97817230225</ele>
        <time>2017-04-17T09:58:47Z</time>
      </trkpt>
      <trkpt lat="43.09114" lon="6.05882">
        <ele>103.70700836182</ele>
        <time>2017-04-17T09:58:49Z</time>
      </trkpt>
      <trkpt lat="43.09118" lon="6.0588">
        <ele>103.47579193115</ele>
        <time>2017-04-17T09:58:52Z</time>
      </trkpt>
      <trkpt lat="43.09123" lon="6.05879">
        <ele>103.23879241943</ele>
        <time>2017-04-17T09:58:55Z</time>
      </trkpt>
      <trkpt lat="43.09129" lon="6.0588">
        <ele>102.97778320312</ele>
        <time>2017-04-17T09:58:58Z</time>
      </trkpt>
      <trkpt lat="43.09132" lon="6.05879">
        <ele>102.73006439209</ele>
        <time>2017-04-17T09:59:00Z</time>
      </trkpt>
      <trkpt lat="43.09137" lon="6.05877">
        <ele>102.46932220459</ele>
        <time>2017-04-17T09:59:03Z</time>
      </trkpt>
      <trkpt lat="43.0914" lon="6.05874">
        <ele>102.22901916504</ele>
        <time>2017-04-17T09:59:05Z</time>
      </trkpt>
      <trkpt lat="43.09143" lon="6.05872">
        <ele>102.07131195068</ele>
        <time>2017-04-17T09:59:07Z</time>
      </trkpt>
      <trkpt lat="43.09148" lon="6.05866">
        <ele>102.05961608887</ele>
        <time>2017-04-17T09:59:10Z</time>
      </trkpt>
      <trkpt lat="43.09151" lon="6.05859">
        <ele>102.15003967285</ele>
        <time>2017-04-17T09:59:13Z</time>
      </trkpt>
      <trkpt lat="43.09153" lon="6.05855">
        <ele>102.32047271729</ele>
        <time>2017-04-17T09:59:15Z</time>
      </trkpt>
      <trkpt lat="43.09155" lon="6.0585">
        <ele>102.54630279541</ele>
        <time>2017-04-17T09:59:18Z</time>
      </trkpt>
      <trkpt lat="43.09157" lon="6.05842">
        <ele>102.84446716309</ele>
        <time>2017-04-17T09:59:21Z</time>
      </trkpt>
      <trkpt lat="43.09157" lon="6.05834">
        <ele>103.25679016113</ele>
        <time>2017-04-17T09:59:24Z</time>
      </trkpt>
      <trkpt lat="43.09157" lon="6.05826">
        <ele>103.82460784912</ele>
        <time>2017-04-17T09:59:27Z</time>
      </trkpt>
      <trkpt lat="43.09158" lon="6.05818">
        <ele>104.51865386963</ele>
        <time>2017-04-17T09:59:30Z</time>
      </trkpt>
      <trkpt lat="43.0916" lon="6.05811">
        <ele>105.2911529541</ele>
        <time>2017-04-17T09:59:33Z</time>
      </trkpt>
      <trkpt lat="43.09161" lon="6.05804">
        <ele>106.12461090088</ele>
        <time>2017-04-17T09:59:36Z</time>
      </trkpt>
      <trkpt lat="43.09162" lon="6.05797">
        <ele>106.98542785645</ele>
        <time>2017-04-17T09:59:39Z</time>
      </trkpt>
      <trkpt lat="43.09163" lon="6.0579">
        <ele>107.76859283447</ele>
        <time>2017-04-17T09:59:42Z</time>
      </trkpt>
      <trkpt lat="43.09162" lon="6.05785">
        <ele>108.53419494629</ele>
        <time>2017-04-17T09:59:44Z</time>
      </trkpt>
      <trkpt lat="43.0916" lon="6.05778">
        <ele>109.42043304443</ele>
        <time>2017-04-17T09:59:47Z</time>
      </trkpt>
      <trkpt lat="43.09162" lon="6.05771">
        <ele>110.28913879395</ele>
        <time>2017-04-17T09:59:50Z</time>
      </trkpt>
      <trkpt lat="43.09164" lon="6.05765">
        <ele>111.06767272949</ele>
        <time>2017-04-17T09:59:53Z</time>
      </trkpt>
      <trkpt lat="43.09165" lon="6.05758">
        <ele>111.85939788818</ele>
        <time>2017-04-17T09:59:56Z</time>
      </trkpt>
      <trkpt lat="43.09165" lon="6.05752">
        <ele>112.67106628418</ele>
        <time>2017-04-17T09:59:59Z</time>
      </trkpt>
      <trkpt lat="43.09167" lon="6.05748">
        <ele>113.24468994141</ele>
        <time>2017-04-17T10:00:01Z</time>
      </trkpt>
      <trkpt lat="43.0917" lon="6.05744">
        <ele>113.7018661499</ele>
        <time>2017-04-17T10:00:03Z</time>
      </trkpt>
      <trkpt lat="43.09173" lon="6.05738">
        <ele>114.169921875</ele>
        <time>2017-04-17T10:00:06Z</time>
      </trkpt>
      <trkpt lat="43.09174" lon="6.05731">
        <ele>114.61242675781</ele>
        <time>2017-04-17T10:00:09Z</time>
      </trkpt>
      <trkpt lat="43.09174" lon="6.05725">
        <ele>115.01039123535</ele>
        <time>2017-04-17T10:00:12Z</time>
      </trkpt>
      <trkpt lat="43.09175" lon="6.05719">
        <ele>115.50444030762</ele>
        <time>2017-04-17T10:00:15Z</time>
      </trkpt>
      <trkpt lat="43.09175" lon="6.05715">
        <ele>116.08419036865</ele>
        <time>2017-04-17T10:00:17Z</time>
      </trkpt>
      <trkpt lat="43.09175" lon="6.05709">
        <ele>116.70168304443</ele>
        <time>2017-04-17T10:00:20Z</time>
      </trkpt>
      <trkpt lat="43.09176" lon="6.05704">
        <ele>117.27500915527</ele>
        <time>2017-04-17T10:00:23Z</time>
      </trkpt>
      <trkpt lat="43.09179" lon="6.05699">
        <ele>117.76346588135</ele>
        <time>2017-04-17T10:00:26Z</time>
      </trkpt>
      <trkpt lat="43.09182" lon="6.05694">
        <ele>118.09564208984</ele>
        <time>2017-04-17T10:00:29Z</time>
      </trkpt>
      <trkpt lat="43.09183" lon="6.05689">
        <ele>118.41026306152</ele>
        <time>2017-04-17T10:00:32Z</time>
      </trkpt>
      <trkpt lat="43.09184" lon="6.05685">
        <ele>118.6579208374</ele>
        <time>2017-04-17T10:00:34Z</time>
      </trkpt>
      <trkpt lat="43.09184" lon="6.0568">
        <ele>118.92433166504</ele>
        <time>2017-04-17T10:00:37Z</time>
      </trkpt>
      <trkpt lat="43.09182" lon="6.05675">
        <ele>119.34065246582</ele>
        <time>2017-04-17T10:00:40Z</time>
      </trkpt>
      <trkpt lat="43.09182" lon="6.05669">
        <ele>119.93074035645</ele>
        <time>2017-04-17T10:00:43Z</time>
      </trkpt>
      <trkpt lat="43.09181" lon="6.05663">
        <ele>120.46308898926</ele>
        <time>2017-04-17T10:00:46Z</time>
      </trkpt>
      <trkpt lat="43.0918" lon="6.05659">
        <ele>120.97634124756</ele>
        <time>2017-04-17T10:00:48Z</time>
      </trkpt>
      <trkpt lat="43.09177" lon="6.05653">
        <ele>121.44533538818</ele>
        <time>2017-04-17T10:00:51Z</time>
      </trkpt>
      <trkpt lat="43.09175" lon="6.05649">
        <ele>121.79887390137</ele>
        <time>2017-04-17T10:00:54Z</time>
      </trkpt>
      <trkpt lat="43.09173" lon="6.05644">
        <ele>122.07258605957</ele>
        <time>2017-04-17T10:00:57Z</time>
      </trkpt>
      <trkpt lat="43.09171" lon="6.05641">
        <ele>122.37162780762</ele>
        <time>2017-04-17T10:00:59Z</time>
      </trkpt>
      <trkpt lat="43.0917" lon="6.05637">
        <ele>122.65897369385</ele>
        <time>2017-04-17T10:01:01Z</time>
      </trkpt>
      <trkpt lat="43.09169" lon="6.05634">
        <ele>122.91542816162</ele>
        <time>2017-04-17T10:01:03Z</time>
      </trkpt>
      <trkpt lat="43.09166" lon="6.05629">
        <ele>123.19209289551</ele>
        <time>2017-04-17T10:01:06Z</time>
      </trkpt>
      <trkpt lat="43.09164" lon="6.05626">
        <ele>123.4659576416</ele>
        <time>2017-04-17T10:01:08Z</time>
      </trkpt>
      <trkpt lat="43.09159" lon="6.05622">
        <ele>123.8623046875</ele>
        <time>2017-04-17T10:01:11Z</time>
      </trkpt>
      <trkpt lat="43.09155" lon="6.05619">
        <ele>124.33003234863</ele>
        <time>2017-04-17T10:01:13Z</time>
      </trkpt>
      <trkpt lat="43.09153" lon="6.05613">
        <ele>124.82946777344</ele>
        <time>2017-04-17T10:01:16Z</time>
      </trkpt>
      <trkpt lat="43.09151" lon="6.05608">
        <ele>125.23962402344</ele>
        <time>2017-04-17T10:01:18Z</time>
      </trkpt>
      <trkpt lat="43.09149" lon="6.05602">
        <ele>125.64562988281</ele>
        <time>2017-04-17T10:01:21Z</time>
      </trkpt>
      <trkpt lat="43.09147" lon="6.05599">
        <ele>125.9306640625</ele>
        <time>2017-04-17T10:01:23Z</time>
      </trkpt>
      <trkpt lat="43.09144" lon="6.05596">
        <ele>126.19860839844</ele>
        <time>2017-04-17T10:01:25Z</time>
      </trkpt>
      <trkpt lat="43.0914" lon="6.05593">
        <ele>126.54052734375</ele>
        <time>2017-04-17T10:01:27Z</time>
      </trkpt>
      <trkpt lat="43.09137" lon="6.05589">
        <ele>126.96313476562</ele>
        <time>2017-04-17T10:01:30Z</time>
      </trkpt>
      <trkpt lat="43.09135" lon="6.05583">
        <ele>127.366065979</ele>
        <time>2017-04-17T10:01:33Z</time>
      </trkpt>
      <trkpt lat="43.09134" lon="6.05579">
        <ele>127.71095275879</ele>
        <time>2017-04-17T10:01:35Z</time>
      </trkpt>
      <trkpt lat="43.09132" lon="6.05576">
        <ele>127.99810791016</ele>
        <time>2017-04-17T10:01:37Z</time>
      </trkpt>
      <trkpt lat="43.09131" lon="6.05569">
        <ele>128.13212585449</ele>
        <time>2017-04-17T10:01:40Z</time>
      </trkpt>
      <trkpt lat="43.09129" lon="6.05563">
        <ele>128.17808532715</ele>
        <time>2017-04-17T10:01:43Z</time>
      </trkpt>
      <trkpt lat="43.09128" lon="6.0556">
        <ele>128.20913696289</ele>
        <time>2017-04-17T10:01:45Z</time>
      </trkpt>
      <trkpt lat="43.09126" lon="6.05558">
        <ele>128.28840637207</ele>
        <time>2017-04-17T10:01:47Z</time>
      </trkpt>
      <trkpt lat="43.09124" lon="6.05555">
        <ele>128.41093444824</ele>
        <time>2017-04-17T10:01:49Z</time>
      </trkpt>
      <trkpt lat="43.09122" lon="6.05553">
        <ele>128.60275268555</ele>
        <time>2017-04-17T10:01:51Z</time>
      </trkpt>
      <trkpt lat="43.0912" lon="6.05548">
        <ele>128.81489562988</ele>
        <time>2017-04-17T10:01:54Z</time>
      </trkpt>
      <trkpt lat="43.09118" lon="6.05546">
        <ele>129.10614013672</ele>
        <time>2017-04-17T10:01:56Z</time>
      </trkpt>
      <trkpt lat="43.09115" lon="6.05543">
        <ele>129.42448425293</ele>
        <time>2017-04-17T10:01:59Z</time>
      </trkpt>
      <trkpt lat="43.09109" lon="6.05539">
        <ele>129.86730957031</ele>
        <time>2017-04-17T10:02:02Z</time>
      </trkpt>
      <trkpt lat="43.09108" lon="6.05533">
        <ele>130.25155639648</ele>
        <time>2017-04-17T10:02:05Z</time>
      </trkpt>
      <trkpt lat="43.09107" lon="6.05528">
        <ele>130.60116577148</ele>
        <time>2017-04-17T10:02:08Z</time>
      </trkpt>
      <trkpt lat="43.09105" lon="6.05524">
        <ele>130.90805053711</ele>
        <time>2017-04-17T10:02:11Z</time>
      </trkpt>
      <trkpt lat="43.09103" lon="6.05521">
        <ele>131.21002197266</ele>
        <time>2017-04-17T10:02:13Z</time>
      </trkpt>
      <trkpt lat="43.091" lon="6.05518">
        <ele>131.42205810547</ele>
        <time>2017-04-17T10:02:16Z</time>
      </trkpt>
      <trkpt lat="43.09098" lon="6.05515">
        <ele>131.70170593262</ele>
        <time>2017-04-17T10:02:18Z</time>
      </trkpt>
      <trkpt lat="43.09096" lon="6.05511">
        <ele>132.02787780762</ele>
        <time>2017-04-17T10:02:21Z</time>
      </trkpt>
      <trkpt lat="43.09094" lon="6.05508">
        <ele>132.36636352539</ele>
        <time>2017-04-17T10:02:23Z</time>
      </trkpt>
      <trkpt lat="43.09091" lon="6.05504">
        <ele>132.74844360352</ele>
        <time>2017-04-17T10:02:26Z</time>
      </trkpt>
      <trkpt lat="43.09089" lon="6.05502">
        <ele>133.09046936035</ele>
        <time>2017-04-17T10:02:28Z</time>
      </trkpt>
      <trkpt lat="43.09086" lon="6.05497">
        <ele>133.52291870117</ele>
        <time>2017-04-17T10:02:31Z</time>
      </trkpt>
      <trkpt lat="43.09084" lon="6.05493">
        <ele>134.05535888672</ele>
        <time>2017-04-17T10:02:33Z</time>
      </trkpt>
      <trkpt lat="43.09083" lon="6.05487">
        <ele>134.66421508789</ele>
        <time>2017-04-17T10:02:36Z</time>
      </trkpt>
      <trkpt lat="43.09082" lon="6.0548">
        <ele>135.25769042969</ele>
        <time>2017-04-17T10:02:39Z</time>
      </trkpt>
      <trkpt lat="43.09081" lon="6.05476">
        <ele>135.83961486816</ele>
        <time>2017-04-17T10:02:41Z</time>
      </trkpt>
      <trkpt lat="43.09079" lon="6.05469">
        <ele>136.33160400391</ele>
        <time>2017-04-17T10:02:44Z</time>
      </trkpt>
      <trkpt lat="43.09079" lon="6.05464">
        <ele>136.77604675293</ele>
        <time>2017-04-17T10:02:46Z</time>
      </trkpt>
      <trkpt lat="43.0908" lon="6.05457">
        <ele>137.21452331543</ele>
        <time>2017-04-17T10:02:49Z</time>
      </trkpt>
      <trkpt lat="43.09081" lon="6.05449">
        <ele>137.70327758789</ele>
        <time>2017-04-17T10:02:52Z</time>
      </trkpt>
      <trkpt lat="43.0908" lon="6.05445">
        <ele>138.20172119141</ele>
        <time>2017-04-17T10:02:54Z</time>
      </trkpt>
      <trkpt lat="43.09076" lon="6.05441">
        <ele>138.63261413574</ele>
        <time>2017-04-17T10:02:57Z</time>
      </trkpt>
      <trkpt lat="43.09072" lon="6.0544">
        <ele>138.92582702637</ele>
        <time>2017-04-17T10:02:59Z</time>
      </trkpt>
      <trkpt lat="43.09068" lon="6.05438">
        <ele>139.02276611328</ele>
        <time>2017-04-17T10:03:02Z</time>
      </trkpt>
      <trkpt lat="43.09066" lon="6.05436">
        <ele>138.98654174805</ele>
        <time>2017-04-17T10:03:04Z</time>
      </trkpt>
      <trkpt lat="43.09065" lon="6.05432">
        <ele>138.94775390625</ele>
        <time>2017-04-17T10:03:06Z</time>
      </trkpt>
      <trkpt lat="43.09064" lon="6.05427">
        <ele>139.01504516602</ele>
        <time>2017-04-17T10:03:09Z</time>
      </trkpt>
      <trkpt lat="43.09063" lon="6.05424">
        <ele>139.17549133301</ele>
        <time>2017-04-17T10:03:11Z</time>
      </trkpt>
      <trkpt lat="43.09062" lon="6.05421">
        <ele>139.43420410156</ele>
        <time>2017-04-17T10:03:13Z</time>
      </trkpt>
      <trkpt lat="43.09059" lon="6.05416">
        <ele>139.74462890625</ele>
        <time>2017-04-17T10:03:16Z</time>
      </trkpt>
      <trkpt lat="43.09057" lon="6.05414">
        <ele>140.03712463379</ele>
        <time>2017-04-17T10:03:18Z</time>
      </trkpt>
      <trkpt lat="43.09055" lon="6.05411">
        <ele>140.28288269043</ele>
        <time>2017-04-17T10:03:20Z</time>
      </trkpt>
      <trkpt lat="43.09051" lon="6.05408">
        <ele>140.52174377441</ele>
        <time>2017-04-17T10:03:23Z</time>
      </trkpt>
      <trkpt lat="43.09049" lon="6.05406">
        <ele>140.78918457031</ele>
        <time>2017-04-17T10:03:25Z</time>
      </trkpt>
      <trkpt lat="43.09047" lon="6.05402">
        <ele>141.08438110352</ele>
        <time>2017-04-17T10:03:27Z</time>
      </trkpt>
      <trkpt lat="43.09044" lon="6.05398">
        <ele>141.43811035156</ele>
        <time>2017-04-17T10:03:30Z</time>
      </trkpt>
      <trkpt lat="43.09042" lon="6.05396">
        <ele>141.79116821289</ele>
        <time>2017-04-17T10:03:32Z</time>
      </trkpt>
      <trkpt lat="43.09039" lon="6.05393">
        <ele>142.18154907227</ele>
        <time>2017-04-17T10:03:35Z</time>
      </trkpt>
      <trkpt lat="43.09036" lon="6.05389">
        <ele>142.62240600586</ele>
        <time>2017-04-17T10:03:38Z</time>
      </trkpt>
      <trkpt lat="43.09034" lon="6.05387">
        <ele>143.03414916992</ele>
        <time>2017-04-17T10:03:40Z</time>
      </trkpt>
      <trkpt lat="43.09032" lon="6.05386">
        <ele>143.3821105957</ele>
        <time>2017-04-17T10:03:42Z</time>
      </trkpt>
      <trkpt lat="43.09029" lon="6.05383">
        <ele>143.76817321777</ele>
        <time>2017-04-17T10:03:45Z</time>
      </trkpt>
      <trkpt lat="43.09026" lon="6.05379">
        <ele>144.2248840332</ele>
        <time>2017-04-17T10:03:48Z</time>
      </trkpt>
      <trkpt lat="43.09024" lon="6.05376">
        <ele>144.66007995605</ele>
        <time>2017-04-17T10:03:50Z</time>
      </trkpt>
      <trkpt lat="43.09023" lon="6.05373">
        <ele>145.14933776855</ele>
        <time>2017-04-17T10:03:52Z</time>
      </trkpt>
      <trkpt lat="43.09021" lon="6.05369">
        <ele>145.7525177002</ele>
        <time>2017-04-17T10:03:55Z</time>
      </trkpt>
      <trkpt lat="43.09018" lon="6.05365">
        <ele>146.41816711426</ele>
        <time>2017-04-17T10:03:58Z</time>
      </trkpt>
      <trkpt lat="43.09016" lon="6.05364">
        <ele>146.99508666992</ele>
        <time>2017-04-17T10:04:00Z</time>
      </trkpt>
      <trkpt lat="43.09013" lon="6.05362">
        <ele>147.5482635498</ele>
        <time>2017-04-17T10:04:03Z</time>
      </trkpt>
      <trkpt lat="43.09013" lon="6.0536">
        <ele>148.05960083008</ele>
        <time>2017-04-17T10:04:06Z</time>
      </trkpt>
      <trkpt lat="43.09012" lon="6.05355">
        <ele>148.64022827148</ele>
        <time>2017-04-17T10:04:09Z</time>
      </trkpt>
      <trkpt lat="43.09011" lon="6.05352">
        <ele>149.19691467285</ele>
        <time>2017-04-17T10:04:11Z</time>
      </trkpt>
      <trkpt lat="43.09011" lon="6.05347">
        <ele>149.91876220703</ele>
        <time>2017-04-17T10:04:14Z</time>
      </trkpt>
      <trkpt lat="43.09011" lon="6.05344">
        <ele>150.70185852051</ele>
        <time>2017-04-17T10:04:16Z</time>
      </trkpt>
      <trkpt lat="43.09011" lon="6.05341">
        <ele>151.54679870605</ele>
        <time>2017-04-17T10:04:18Z</time>
      </trkpt>
      <trkpt lat="43.0901" lon="6.05336">
        <ele>152.36152648926</ele>
        <time>2017-04-17T10:04:21Z</time>
      </trkpt>
      <trkpt lat="43.0901" lon="6.0533">
        <ele>153.28761291504</ele>
        <time>2017-04-17T10:04:24Z</time>
      </trkpt>
      <trkpt lat="43.09011" lon="6.05325">
        <ele>154.17370605469</ele>
        <time>2017-04-17T10:04:27Z</time>
      </trkpt>
      <trkpt lat="43.09014" lon="6.05321">
        <ele>155.0383605957</ele>
        <time>2017-04-17T10:04:30Z</time>
      </trkpt>
      <trkpt lat="43.09015" lon="6.0532">
        <ele>155.80508422852</ele>
        <time>2017-04-17T10:04:32Z</time>
      </trkpt>
      <trkpt lat="43.09017" lon="6.05319">
        <ele>156.41020202637</ele>
        <time>2017-04-17T10:04:34Z</time>
      </trkpt>
      <trkpt lat="43.09019" lon="6.05316">
        <ele>156.83712768555</ele>
        <time>2017-04-17T10:04:37Z</time>
      </trkpt>
      <trkpt lat="43.09023" lon="6.05313">
        <ele>157.14199829102</ele>
        <time>2017-04-17T10:04:40Z</time>
      </trkpt>
      <trkpt lat="43.09027" lon="6.05312">
        <ele>157.34019470215</ele>
        <time>2017-04-17T10:04:43Z</time>
      </trkpt>
      <trkpt lat="43.09029" lon="6.05313">
        <ele>157.45724487305</ele>
        <time>2017-04-17T10:04:45Z</time>
      </trkpt>
      <trkpt lat="43.09032" lon="6.05311">
        <ele>157.58410644531</ele>
        <time>2017-04-17T10:04:48Z</time>
      </trkpt>
      <trkpt lat="43.09035" lon="6.05307">
        <ele>157.71853637695</ele>
        <time>2017-04-17T10:04:50Z</time>
      </trkpt>
      <trkpt lat="43.09038" lon="6.05305">
        <ele>157.85523986816</ele>
        <time>2017-04-17T10:04:52Z</time>
      </trkpt>
      <trkpt lat="43.09042" lon="6.05301">
        <ele>158.05685424805</ele>
        <time>2017-04-17T10:04:55Z</time>
      </trkpt>
      <trkpt lat="43.09045" lon="6.053">
        <ele>158.30293273926</ele>
        <time>2017-04-17T10:04:57Z</time>
      </trkpt>
      <trkpt lat="43.0905" lon="6.05298">
        <ele>158.51187133789</ele>
        <time>2017-04-17T10:05:00Z</time>
      </trkpt>
      <trkpt lat="43.09053" lon="6.05295">
        <ele>158.68991088867</ele>
        <time>2017-04-17T10:05:03Z</time>
      </trkpt>
      <trkpt lat="43.09058" lon="6.05293">
        <ele>158.82287597656</ele>
        <time>2017-04-17T10:05:06Z</time>
      </trkpt>
      <trkpt lat="43.09061" lon="6.05289">
        <ele>158.95669555664</ele>
        <time>2017-04-17T10:05:09Z</time>
      </trkpt>
      <trkpt lat="43.09063" lon="6.05285">
        <ele>159.19389343262</ele>
        <time>2017-04-17T10:05:12Z</time>
      </trkpt>
      <trkpt lat="43.09064" lon="6.05279">
        <ele>159.56907653809</ele>
        <time>2017-04-17T10:05:15Z</time>
      </trkpt>
      <trkpt lat="43.09064" lon="6.05276">
        <ele>159.99938964844</ele>
        <time>2017-04-17T10:05:17Z</time>
      </trkpt>
      <trkpt lat="43.09064" lon="6.05271">
        <ele>160.55307006836</ele>
        <time>2017-04-17T10:05:20Z</time>
      </trkpt>
      <trkpt lat="43.09064" lon="6.05267">
        <ele>161.14376831055</ele>
        <time>2017-04-17T10:05:22Z</time>
      </trkpt>
      <trkpt lat="43.09063" lon="6.05264">
        <ele>161.74819946289</ele>
        <time>2017-04-17T10:05:24Z</time>
      </trkpt>
      <trkpt lat="43.09061" lon="6.05261">
        <ele>162.34403991699</ele>
        <time>2017-04-17T10:05:27Z</time>
      </trkpt>
      <trkpt lat="43.0906" lon="6.05258">
        <ele>162.9455871582</ele>
        <time>2017-04-17T10:05:29Z</time>
      </trkpt>
      <trkpt lat="43.09056" lon="6.05256">
        <ele>163.53433227539</ele>
        <time>2017-04-17T10:05:32Z</time>
      </trkpt>
      <trkpt lat="43.09054" lon="6.05255">
        <ele>164.08609008789</ele>
        <time>2017-04-17T10:05:34Z</time>
      </trkpt>
      <trkpt lat="43.0905" lon="6.05253">
        <ele>164.63261413574</ele>
        <time>2017-04-17T10:05:36Z</time>
      </trkpt>
      <trkpt lat="43.09046" lon="6.05252">
        <ele>165.1800994873</ele>
        <time>2017-04-17T10:05:39Z</time>
      </trkpt>
      <trkpt lat="43.09042" lon="6.05251">
        <ele>165.73254394531</ele>
        <time>2017-04-17T10:05:42Z</time>
      </trkpt>
      <trkpt lat="43.09037" lon="6.05249">
        <ele>166.29609680176</ele>
        <time>2017-04-17T10:05:45Z</time>
      </trkpt>
      <trkpt lat="43.09034" lon="6.05248">
        <ele>166.87976074219</ele>
        <time>2017-04-17T10:05:47Z</time>
      </trkpt>
      <trkpt lat="43.09031" lon="6.05248">
        <ele>167.44352722168</ele>
        <time>2017-04-17T10:05:50Z</time>
      </trkpt>
      <trkpt lat="43.09027" lon="6.05247">
        <ele>167.96722412109</ele>
        <time>2017-04-17T10:05:52Z</time>
      </trkpt>
      <trkpt lat="43.09022" lon="6.05247">
        <ele>168.48710632324</ele>
        <time>2017-04-17T10:05:55Z</time>
      </trkpt>
      <trkpt lat="43.09017" lon="6.05247">
        <ele>168.95967102051</ele>
        <time>2017-04-17T10:05:58Z</time>
      </trkpt>
      <trkpt lat="43.09012" lon="6.05247">
        <ele>169.42134094238</ele>
        <time>2017-04-17T10:06:01Z</time>
      </trkpt>
      <trkpt lat="43.09007" lon="6.05247">
        <ele>169.90559387207</ele>
        <time>2017-04-17T10:06:04Z</time>
      </trkpt>
      <trkpt lat="43.09003" lon="6.05247">
        <ele>170.35757446289</ele>
        <time>2017-04-17T10:06:06Z</time>
      </trkpt>
      <trkpt lat="43.08997" lon="6.05249">
        <ele>170.61172485352</ele>
        <time>2017-04-17T10:06:09Z</time>
      </trkpt>
      <trkpt lat="43.08992" lon="6.05251">
        <ele>170.55348205566</ele>
        <time>2017-04-17T10:06:12Z</time>
      </trkpt>
      <trkpt lat="43.08988" lon="6.0525">
        <ele>170.33285522461</ele>
        <time>2017-04-17T10:06:14Z</time>
      </trkpt>
      <trkpt lat="43.08983" lon="6.05247">
        <ele>169.92092895508</ele>
        <time>2017-04-17T10:06:17Z</time>
      </trkpt>
      <trkpt lat="43.0898" lon="6.05244">
        <ele>169.47689819336</ele>
        <time>2017-04-17T10:06:19Z</time>
      </trkpt>
      <trkpt lat="43.08977" lon="6.0524">
        <ele>169.19107055664</ele>
        <time>2017-04-17T10:06:22Z</time>
      </trkpt>
      <trkpt lat="43.08974" lon="6.05237">
        <ele>169.15037536621</ele>
        <time>2017-04-17T10:06:24Z</time>
      </trkpt>
      <trkpt lat="43.0897" lon="6.05233">
        <ele>169.20639038086</ele>
        <time>2017-04-17T10:06:27Z</time>
      </trkpt>
      <trkpt lat="43.08968" lon="6.0523">
        <ele>169.4035949707</ele>
        <time>2017-04-17T10:06:29Z</time>
      </trkpt>
      <trkpt lat="43.08965" lon="6.05225">
        <ele>169.65237426758</ele>
        <time>2017-04-17T10:06:32Z</time>
      </trkpt>
      <trkpt lat="43.08965" lon="6.05221">
        <ele>169.96809387207</ele>
        <time>2017-04-17T10:06:34Z</time>
      </trkpt>
      <trkpt lat="43.08965" lon="6.05215">
        <ele>170.48532104492</ele>
        <time>2017-04-17T10:06:37Z</time>
      </trkpt>
      <trkpt lat="43.08964" lon="6.05208">
        <ele>171.22329711914</ele>
        <time>2017-04-17T10:06:40Z</time>
      </trkpt>
      <trkpt lat="43.08963" lon="6.05204">
        <ele>172.03523254395</ele>
        <time>2017-04-17T10:06:42Z</time>
      </trkpt>
      <trkpt lat="43.08962" lon="6.05199">
        <ele>172.89714050293</ele>
        <time>2017-04-17T10:06:44Z</time>
      </trkpt>
      <trkpt lat="43.0896" lon="6.05195">
        <ele>173.73515319824</ele>
        <time>2017-04-17T10:06:46Z</time>
      </trkpt>
      <trkpt lat="43.08958" lon="6.05188">
        <ele>174.52035522461</ele>
        <time>2017-04-17T10:06:49Z</time>
      </trkpt>
      <trkpt lat="43.08957" lon="6.05184">
        <ele>175.19189453125</ele>
        <time>2017-04-17T10:06:51Z</time>
      </trkpt>
      <trkpt lat="43.08955" lon="6.0518">
        <ele>175.82363891602</ele>
        <time>2017-04-17T10:06:53Z</time>
      </trkpt>
      <trkpt lat="43.08955" lon="6.05173">
        <ele>176.56365966797</ele>
        <time>2017-04-17T10:06:56Z</time>
      </trkpt>
      <trkpt lat="43.08954" lon="6.05168">
        <ele>177.34765625</ele>
        <time>2017-04-17T10:06:58Z</time>
      </trkpt>
      <trkpt lat="43.08954" lon="6.05164">
        <ele>178.10472106934</ele>
        <time>2017-04-17T10:07:00Z</time>
      </trkpt>
      <trkpt lat="43.08954" lon="6.05158">
        <ele>178.97085571289</ele>
        <time>2017-04-17T10:07:03Z</time>
      </trkpt>
      <trkpt lat="43.08954" lon="6.05152">
        <ele>179.95974731445</ele>
        <time>2017-04-17T10:07:06Z</time>
      </trkpt>
      <trkpt lat="43.08953" lon="6.05148">
        <ele>180.82284545898</ele>
        <time>2017-04-17T10:07:08Z</time>
      </trkpt>
      <trkpt lat="43.08949" lon="6.05143">
        <ele>181.62727355957</ele>
        <time>2017-04-17T10:07:11Z</time>
      </trkpt>
      <trkpt lat="43.08946" lon="6.05138">
        <ele>182.35858154297</ele>
        <time>2017-04-17T10:07:14Z</time>
      </trkpt>
      <trkpt lat="43.08943" lon="6.05134">
        <ele>182.93139648438</ele>
        <time>2017-04-17T10:07:17Z</time>
      </trkpt>
      <trkpt lat="43.08942" lon="6.0513">
        <ele>183.3836517334</ele>
        <time>2017-04-17T10:07:19Z</time>
      </trkpt>
      <trkpt lat="43.0894" lon="6.05126">
        <ele>183.83024597168</ele>
        <time>2017-04-17T10:07:22Z</time>
      </trkpt>
      <trkpt lat="43.08937" lon="6.05121">
        <ele>184.3088684082</ele>
        <time>2017-04-17T10:07:25Z</time>
      </trkpt>
      <trkpt lat="43.08935" lon="6.05116">
        <ele>184.82911682129</ele>
        <time>2017-04-17T10:07:28Z</time>
      </trkpt>
      <trkpt lat="43.08933" lon="6.05114">
        <ele>185.31307983398</ele>
        <time>2017-04-17T10:07:30Z</time>
      </trkpt>
      <trkpt lat="43.08929" lon="6.0511">
        <ele>185.72720336914</ele>
        <time>2017-04-17T10:07:33Z</time>
      </trkpt>
      <trkpt lat="43.08926" lon="6.05108">
        <ele>186.06091308594</ele>
        <time>2017-04-17T10:07:35Z</time>
      </trkpt>
      <trkpt lat="43.08922" lon="6.05105">
        <ele>186.25541687012</ele>
        <time>2017-04-17T10:07:38Z</time>
      </trkpt>
      <trkpt lat="43.08919" lon="6.05101">
        <ele>186.38255310059</ele>
        <time>2017-04-17T10:07:40Z</time>
      </trkpt>
      <trkpt lat="43.08916" lon="6.05096">
        <ele>186.56777954102</ele>
        <time>2017-04-17T10:07:43Z</time>
      </trkpt>
      <trkpt lat="43.08915" lon="6.05092">
        <ele>186.80574035645</ele>
        <time>2017-04-17T10:07:46Z</time>
      </trkpt>
      <trkpt lat="43.08914" lon="6.05088">
        <ele>187.14277648926</ele>
        <time>2017-04-17T10:07:49Z</time>
      </trkpt>
      <trkpt lat="43.08913" lon="6.05086">
        <ele>187.50761413574</ele>
        <time>2017-04-17T10:07:51Z</time>
      </trkpt>
      <trkpt lat="43.08912" lon="6.05084">
        <ele>187.82426452637</ele>
        <time>2017-04-17T10:07:53Z</time>
      </trkpt>
      <trkpt lat="43.0891" lon="6.0508">
        <ele>188.02163696289</ele>
        <time>2017-04-17T10:07:56Z</time>
      </trkpt>
      <trkpt lat="43.08909" lon="6.05076">
        <ele>188.17289733887</ele>
        <time>2017-04-17T10:07:59Z</time>
      </trkpt>
      <trkpt lat="43.08906" lon="6.05072">
        <ele>188.11428833008</ele>
        <time>2017-04-17T10:08:02Z</time>
      </trkpt>
      <trkpt lat="43.08904" lon="6.05067">
        <ele>188.0443572998</ele>
        <time>2017-04-17T10:08:05Z</time>
      </trkpt>
      <trkpt lat="43.08902" lon="6.05063">
        <ele>187.9662322998</ele>
        <time>2017-04-17T10:08:07Z</time>
      </trkpt>
      <trkpt lat="43.08902" lon="6.0506">
        <ele>187.99809265137</ele>
        <time>2017-04-17T10:08:09Z</time>
      </trkpt>
      <trkpt lat="43.08901" lon="6.05057">
        <ele>188.03515625</ele>
        <time>2017-04-17T10:08:11Z</time>
      </trkpt>
      <trkpt lat="43.089" lon="6.05049">
        <ele>188.30451965332</ele>
        <time>2017-04-17T10:08:14Z</time>
      </trkpt>
      <trkpt lat="43.08899" lon="6.05042">
        <ele>188.71989440918</ele>
        <time>2017-04-17T10:08:17Z</time>
      </trkpt>
      <trkpt lat="43.08899" lon="6.05037">
        <ele>189.30874633789</ele>
        <time>2017-04-17T10:08:19Z</time>
      </trkpt>
      <trkpt lat="43.08899" lon="6.0503">
        <ele>190.02755737305</ele>
        <time>2017-04-17T10:08:22Z</time>
      </trkpt>
      <trkpt lat="43.08899" lon="6.05026">
        <ele>190.85366821289</ele>
        <time>2017-04-17T10:08:24Z</time>
      </trkpt>
      <trkpt lat="43.089" lon="6.05022">
        <ele>191.72766113281</ele>
        <time>2017-04-17T10:08:26Z</time>
      </trkpt>
      <trkpt lat="43.08902" lon="6.05015">
        <ele>192.78971862793</ele>
        <time>2017-04-17T10:08:29Z</time>
      </trkpt>
      <trkpt lat="43.08901" lon="6.05007">
        <ele>193.86653137207</ele>
        <time>2017-04-17T10:08:32Z</time>
      </trkpt>
      <trkpt lat="43.089" lon="6.05001">
        <ele>194.87496948242</ele>
        <time>2017-04-17T10:08:35Z</time>
      </trkpt>
      <trkpt lat="43.08898" lon="6.04995">
        <ele>195.81196594238</ele>
        <time>2017-04-17T10:08:38Z</time>
      </trkpt>
      <trkpt lat="43.08897" lon="6.04991">
        <ele>196.61247253418</ele>
        <time>2017-04-17T10:08:40Z</time>
      </trkpt>
      <trkpt lat="43.08893" lon="6.04985">
        <ele>197.11601257324</ele>
        <time>2017-04-17T10:08:43Z</time>
      </trkpt>
      <trkpt lat="43.08892" lon="6.0498">
        <ele>197.52529907227</ele>
        <time>2017-04-17T10:08:45Z</time>
      </trkpt>
      <trkpt lat="43.0889" lon="6.04975">
        <ele>197.91625976562</ele>
        <time>2017-04-17T10:08:47Z</time>
      </trkpt>
      <trkpt lat="43.08887" lon="6.04969">
        <ele>198.29577636719</ele>
        <time>2017-04-17T10:08:50Z</time>
      </trkpt>
      <trkpt lat="43.08884" lon="6.04963">
        <ele>198.6396484375</ele>
        <time>2017-04-17T10:08:53Z</time>
      </trkpt>
      <trkpt lat="43.0888" lon="6.04956">
        <ele>198.96594238281</ele>
        <time>2017-04-17T10:08:56Z</time>
      </trkpt>
      <trkpt lat="43.08875" lon="6.04952">
        <ele>199.12280273438</ele>
        <time>2017-04-17T10:08:59Z</time>
      </trkpt>
      <trkpt lat="43.08873" lon="6.04947">
        <ele>199.21276855469</ele>
        <time>2017-04-17T10:09:01Z</time>
      </trkpt>
      <trkpt lat="43.08871" lon="6.0494">
        <ele>199.39245605469</ele>
        <time>2017-04-17T10:09:04Z</time>
      </trkpt>
      <trkpt lat="43.08872" lon="6.04935">
        <ele>199.79125976562</ele>
        <time>2017-04-17T10:09:06Z</time>
      </trkpt>
      <trkpt lat="43.08875" lon="6.0493">
        <ele>200.55322265625</ele>
        <time>2017-04-17T10:09:09Z</time>
      </trkpt>
      <trkpt lat="43.08875" lon="6.04927">
        <ele>201.57214355469</ele>
        <time>2017-04-17T10:09:12Z</time>
      </trkpt>
      <trkpt lat="43.08875" lon="6.04924">
        <ele>202.62622070312</ele>
        <time>2017-04-17T10:09:14Z</time>
      </trkpt>
      <trkpt lat="43.08873" lon="6.04919">
        <ele>203.60400390625</ele>
        <time>2017-04-17T10:09:17Z</time>
      </trkpt>
      <trkpt lat="43.08871" lon="6.04913">
        <ele>204.45690917969</ele>
        <time>2017-04-17T10:09:20Z</time>
      </trkpt>
      <trkpt lat="43.08868" lon="6.04907">
        <ele>204.94860839844</ele>
        <time>2017-04-17T10:09:23Z</time>
      </trkpt>
      <trkpt lat="43.08866" lon="6.04902">
        <ele>205.38833618164</ele>
        <time>2017-04-17T10:09:26Z</time>
      </trkpt>
      <trkpt lat="43.08864" lon="6.04899">
        <ele>205.7272644043</ele>
        <time>2017-04-17T10:09:28Z</time>
      </trkpt>
      <trkpt lat="43.08857" lon="6.04895">
        <ele>205.68911743164</ele>
        <time>2017-04-17T10:09:31Z</time>
      </trkpt>
      <trkpt lat="43.08854" lon="6.04893">
        <ele>205.33947753906</ele>
        <time>2017-04-17T10:09:33Z</time>
      </trkpt>
      <trkpt lat="43.0885" lon="6.0489">
        <ele>204.83125305176</ele>
        <time>2017-04-17T10:09:36Z</time>
      </trkpt>
      <trkpt lat="43.08847" lon="6.04888">
        <ele>204.07046508789</ele>
        <time>2017-04-17T10:09:38Z</time>
      </trkpt>
      <trkpt lat="43.08844" lon="6.04886">
        <ele>203.18313598633</ele>
        <time>2017-04-17T10:09:40Z</time>
      </trkpt>
      <trkpt lat="43.08842" lon="6.04882">
        <ele>202.62049865723</ele>
        <time>2017-04-17T10:09:43Z</time>
      </trkpt>
      <trkpt lat="43.08842" lon="6.04878">
        <ele>202.3376159668</ele>
        <time>2017-04-17T10:09:46Z</time>
      </trkpt>
      <trkpt lat="43.0884" lon="6.04876">
        <ele>202.15730285645</ele>
        <time>2017-04-17T10:09:48Z</time>
      </trkpt>
      <trkpt lat="43.08837" lon="6.04875">
        <ele>201.91883850098</ele>
        <time>2017-04-17T10:09:50Z</time>
      </trkpt>
      <trkpt lat="43.08832" lon="6.04872">
        <ele>201.57678222656</ele>
        <time>2017-04-17T10:09:53Z</time>
      </trkpt>
      <trkpt lat="43.08827" lon="6.04868">
        <ele>201.03720092773</ele>
        <time>2017-04-17T10:09:56Z</time>
      </trkpt>
      <trkpt lat="43.08823" lon="6.04867">
        <ele>200.25520324707</ele>
        <time>2017-04-17T10:09:58Z</time>
      </trkpt>
      <trkpt lat="43.0882" lon="6.04863">
        <ele>199.47512817383</ele>
        <time>2017-04-17T10:10:01Z</time>
      </trkpt>
      <trkpt lat="43.0882" lon="6.04857">
        <ele>199.04835510254</ele>
        <time>2017-04-17T10:10:04Z</time>
      </trkpt>
      <trkpt lat="43.08821" lon="6.04851">
        <ele>199.11647033691</ele>
        <time>2017-04-17T10:10:07Z</time>
      </trkpt>
      <trkpt lat="43.0882" lon="6.04845">
        <ele>199.4868927002</ele>
        <time>2017-04-17T10:10:10Z</time>
      </trkpt>
      <trkpt lat="43.08819" lon="6.04841">
        <ele>200.07675170898</ele>
        <time>2017-04-17T10:10:12Z</time>
      </trkpt>
      <trkpt lat="43.08819" lon="6.04834">
        <ele>200.90995788574</ele>
        <time>2017-04-17T10:10:15Z</time>
      </trkpt>
      <trkpt lat="43.08819" lon="6.04827">
        <ele>201.88700866699</ele>
        <time>2017-04-17T10:10:18Z</time>
      </trkpt>
      <trkpt lat="43.08818" lon="6.04822">
        <ele>202.73799133301</ele>
        <time>2017-04-17T10:10:20Z</time>
      </trkpt>
      <trkpt lat="43.08818" lon="6.04816">
        <ele>203.73393249512</ele>
        <time>2017-04-17T10:10:23Z</time>
      </trkpt>
      <trkpt lat="43.08821" lon="6.0481">
        <ele>205.15353393555</ele>
        <time>2017-04-17T10:10:26Z</time>
      </trkpt>
      <trkpt lat="43.08823" lon="6.04804">
        <ele>206.72602844238</ele>
        <time>2017-04-17T10:10:29Z</time>
      </trkpt>
      <trkpt lat="43.08823" lon="6.048">
        <ele>208.21383666992</ele>
        <time>2017-04-17T10:10:31Z</time>
      </trkpt>
      <trkpt lat="43.08823" lon="6.04795">
        <ele>209.78115844727</ele>
        <time>2017-04-17T10:10:33Z</time>
      </trkpt>
      <trkpt lat="43.08822" lon="6.04788">
        <ele>211.28434753418</ele>
        <time>2017-04-17T10:10:36Z</time>
      </trkpt>
      <trkpt lat="43.0882" lon="6.04784">
        <ele>212.38200378418</ele>
        <time>2017-04-17T10:10:38Z</time>
      </trkpt>
      <trkpt lat="43.08819" lon="6.04777">
        <ele>213.33967590332</ele>
        <time>2017-04-17T10:10:41Z</time>
      </trkpt>
      <trkpt lat="43.08819" lon="6.0477">
        <ele>214.39921569824</ele>
        <time>2017-04-17T10:10:44Z</time>
      </trkpt>
      <trkpt lat="43.08819" lon="6.04765">
        <ele>215.4176940918</ele>
        <time>2017-04-17T10:10:46Z</time>
      </trkpt>
      <trkpt lat="43.08815" lon="6.04758">
        <ele>216.32885742188</ele>
        <time>2017-04-17T10:10:49Z</time>
      </trkpt>
      <trkpt lat="43.08813" lon="6.04753">
        <ele>217.14657592773</ele>
        <time>2017-04-17T10:10:51Z</time>
      </trkpt>
      <trkpt lat="43.0881" lon="6.0475">
        <ele>217.71603393555</ele>
        <time>2017-04-17T10:10:53Z</time>
      </trkpt>
      <trkpt lat="43.08808" lon="6.04747">
        <ele>217.94595336914</ele>
        <time>2017-04-17T10:10:55Z</time>
      </trkpt>
      <trkpt lat="43.08804" lon="6.04743">
        <ele>217.93266296387</ele>
        <time>2017-04-17T10:10:58Z</time>
      </trkpt>
      <trkpt lat="43.08801" lon="6.04739">
        <ele>217.80415344238</ele>
        <time>2017-04-17T10:11:01Z</time>
      </trkpt>
      <trkpt lat="43.08799" lon="6.04735">
        <ele>217.71533203125</ele>
        <time>2017-04-17T10:11:03Z</time>
      </trkpt>
      <trkpt lat="43.08796" lon="6.0473">
        <ele>217.68745422363</ele>
        <time>2017-04-17T10:11:06Z</time>
      </trkpt>
      <trkpt lat="43.08794" lon="6.04727">
        <ele>217.67642211914</ele>
        <time>2017-04-17T10:11:08Z</time>
      </trkpt>
      <trkpt lat="43.0879" lon="6.04722">
        <ele>217.73979187012</ele>
        <time>2017-04-17T10:11:11Z</time>
      </trkpt>
      <trkpt lat="43.08785" lon="6.04717">
        <ele>217.70443725586</ele>
        <time>2017-04-17T10:11:14Z</time>
      </trkpt>
      <trkpt lat="43.08781" lon="6.04715">
        <ele>217.48905944824</ele>
        <time>2017-04-17T10:11:16Z</time>
      </trkpt>
      <trkpt lat="43.08778" lon="6.04712">
        <ele>217.13154602051</ele>
        <time>2017-04-17T10:11:18Z</time>
      </trkpt>
      <trkpt lat="43.08774" lon="6.04709">
        <ele>216.60954284668</ele>
        <time>2017-04-17T10:11:21Z</time>
      </trkpt>
      <trkpt lat="43.0877" lon="6.04707">
        <ele>215.8948059082</ele>
        <time>2017-04-17T10:11:23Z</time>
      </trkpt>
      <trkpt lat="43.08765" lon="6.04706">
        <ele>214.99551391602</ele>
        <time>2017-04-17T10:11:26Z</time>
      </trkpt>
      <trkpt lat="43.0876" lon="6.04704">
        <ele>214.02380371094</ele>
        <time>2017-04-17T10:11:29Z</time>
      </trkpt>
      <trkpt lat="43.08758" lon="6.04702">
        <ele>213.09512329102</ele>
        <time>2017-04-17T10:11:31Z</time>
      </trkpt>
      <trkpt lat="43.08754" lon="6.04697">
        <ele>212.31665039062</ele>
        <time>2017-04-17T10:11:34Z</time>
      </trkpt>
      <trkpt lat="43.08751" lon="6.04693">
        <ele>211.64639282227</ele>
        <time>2017-04-17T10:11:37Z</time>
      </trkpt>
      <trkpt lat="43.08748" lon="6.04687">
        <ele>211.39749145508</ele>
        <time>2017-04-17T10:11:40Z</time>
      </trkpt>
      <trkpt lat="43.08746" lon="6.04682">
        <ele>211.53715515137</ele>
        <time>2017-04-17T10:11:43Z</time>
      </trkpt>
      <trkpt lat="43.08745" lon="6.04679">
        <ele>211.80416870117</ele>
        <time>2017-04-17T10:11:45Z</time>
      </trkpt>
      <trkpt lat="43.08743" lon="6.04676">
        <ele>212.13998413086</ele>
        <time>2017-04-17T10:11:48Z</time>
      </trkpt>
      <trkpt lat="43.08742" lon="6.04672">
        <ele>212.64047241211</ele>
        <time>2017-04-17T10:11:50Z</time>
      </trkpt>
      <trkpt lat="43.08741" lon="6.04668">
        <ele>213.14633178711</ele>
        <time>2017-04-17T10:11:53Z</time>
      </trkpt>
      <trkpt lat="43.0874" lon="6.04666">
        <ele>213.57446289062</ele>
        <time>2017-04-17T10:11:55Z</time>
      </trkpt>
      <trkpt lat="43.08738" lon="6.04663">
        <ele>213.95767211914</ele>
        <time>2017-04-17T10:12:01Z</time>
      </trkpt>
      <trkpt lat="43.08738" lon="6.04659">
        <ele>214.45893859863</ele>
        <time>2017-04-17T10:12:01Z</time>
      </trkpt>
      <trkpt lat="43.08737" lon="6.04652">
        <ele>215.13781738281</ele>
        <time>2017-04-17T10:12:03Z</time>
      </trkpt>
      <trkpt lat="43.08736" lon="6.04649">
        <ele>215.74076843262</ele>
        <time>2017-04-17T10:12:05Z</time>
      </trkpt>
      <trkpt lat="43.08732" lon="6.04645">
        <ele>216.25875854492</ele>
        <time>2017-04-17T10:12:08Z</time>
      </trkpt>
      <trkpt lat="43.0873" lon="6.04642">
        <ele>216.76724243164</ele>
        <time>2017-04-17T10:12:10Z</time>
      </trkpt>
      <trkpt lat="43.08725" lon="6.04638">
        <ele>217.01614379883</ele>
        <time>2017-04-17T10:12:13Z</time>
      </trkpt>
      <trkpt lat="43.08723" lon="6.04636">
        <ele>217.02319335938</ele>
        <time>2017-04-17T10:12:15Z</time>
      </trkpt>
      <trkpt lat="43.08721" lon="6.04633">
        <ele>216.94470214844</ele>
        <time>2017-04-17T10:12:17Z</time>
      </trkpt>
      <trkpt lat="43.08718" lon="6.0463">
        <ele>216.87466430664</ele>
        <time>2017-04-17T10:12:20Z</time>
      </trkpt>
      <trkpt lat="43.08715" lon="6.04627">
        <ele>216.74736022949</ele>
        <time>2017-04-17T10:12:22Z</time>
      </trkpt>
      <trkpt lat="43.08711" lon="6.04623">
        <ele>216.69351196289</ele>
        <time>2017-04-17T10:12:25Z</time>
      </trkpt>
      <trkpt lat="43.08709" lon="6.0462">
        <ele>216.63537597656</ele>
        <time>2017-04-17T10:12:27Z</time>
      </trkpt>
      <trkpt lat="43.08707" lon="6.04614">
        <ele>216.72863769531</ele>
        <time>2017-04-17T10:12:30Z</time>
      </trkpt>
      <trkpt lat="43.08706" lon="6.04611">
        <ele>216.92959594727</ele>
        <time>2017-04-17T10:12:32Z</time>
      </trkpt>
      <trkpt lat="43.08704" lon="6.04605">
        <ele>217.33432006836</ele>
        <time>2017-04-17T10:12:35Z</time>
      </trkpt>
      <trkpt lat="43.08704" lon="6.046">
        <ele>217.9453125</ele>
        <time>2017-04-17T10:12:38Z</time>
      </trkpt>
      <trkpt lat="43.08702" lon="6.04596">
        <ele>218.64387512207</ele>
        <time>2017-04-17T10:12:40Z</time>
      </trkpt>
      <trkpt lat="43.08701" lon="6.04591">
        <ele>219.36849975586</ele>
        <time>2017-04-17T10:12:43Z</time>
      </trkpt>
      <trkpt lat="43.087" lon="6.04587">
        <ele>220.09648132324</ele>
        <time>2017-04-17T10:12:45Z</time>
      </trkpt>
      <trkpt lat="43.08699" lon="6.04581">
        <ele>220.77072143555</ele>
        <time>2017-04-17T10:12:48Z</time>
      </trkpt>
      <trkpt lat="43.08697" lon="6.04575">
        <ele>221.21057128906</ele>
        <time>2017-04-17T10:12:51Z</time>
      </trkpt>
      <trkpt lat="43.08695" lon="6.04572">
        <ele>221.47798156738</ele>
        <time>2017-04-17T10:12:53Z</time>
      </trkpt>
      <trkpt lat="43.08694" lon="6.04567">
        <ele>221.61381530762</ele>
        <time>2017-04-17T10:12:56Z</time>
      </trkpt>
      <trkpt lat="43.08693" lon="6.04563">
        <ele>221.64767456055</ele>
        <time>2017-04-17T10:12:58Z</time>
      </trkpt>
      <trkpt lat="43.08693" lon="6.04557">
        <ele>221.65100097656</ele>
        <time>2017-04-17T10:13:01Z</time>
      </trkpt>
      <trkpt lat="43.08693" lon="6.04553">
        <ele>221.74894714355</ele>
        <time>2017-04-17T10:13:03Z</time>
      </trkpt>
      <trkpt lat="43.08693" lon="6.04546">
        <ele>221.98115539551</ele>
        <time>2017-04-17T10:13:06Z</time>
      </trkpt>
      <trkpt lat="43.08692" lon="6.0454">
        <ele>222.2317199707</ele>
        <time>2017-04-17T10:13:09Z</time>
      </trkpt>
      <trkpt lat="43.08691" lon="6.04535">
        <ele>222.47677612305</ele>
        <time>2017-04-17T10:13:11Z</time>
      </trkpt>
      <trkpt lat="43.08689" lon="6.04529">
        <ele>222.63139343262</ele>
        <time>2017-04-17T10:13:14Z</time>
      </trkpt>
      <trkpt lat="43.08688" lon="6.04523">
        <ele>222.75741577148</ele>
        <time>2017-04-17T10:13:17Z</time>
      </trkpt>
      <trkpt lat="43.08685" lon="6.04517">
        <ele>222.76953125</ele>
        <time>2017-04-17T10:13:20Z</time>
      </trkpt>
      <trkpt lat="43.08684" lon="6.04515">
        <ele>222.70571899414</ele>
        <time>2017-04-17T10:13:22Z</time>
      </trkpt>
      <trkpt lat="43.08682" lon="6.04511">
        <ele>222.61904907227</ele>
        <time>2017-04-17T10:13:24Z</time>
      </trkpt>
      <trkpt lat="43.08681" lon="6.04505">
        <ele>222.56967163086</ele>
        <time>2017-04-17T10:13:26Z</time>
      </trkpt>
      <trkpt lat="43.08678" lon="6.04499">
        <ele>222.43765258789</ele>
        <time>2017-04-17T10:13:29Z</time>
      </trkpt>
      <trkpt lat="43.08674" lon="6.04493">
        <ele>222.11141967773</ele>
        <time>2017-04-17T10:13:32Z</time>
      </trkpt>
      <trkpt lat="43.08671" lon="6.04487">
        <ele>221.58171081543</ele>
        <time>2017-04-17T10:13:35Z</time>
      </trkpt>
      <trkpt lat="43.08669" lon="6.04482">
        <ele>220.93594360352</ele>
        <time>2017-04-17T10:13:37Z</time>
      </trkpt>
      <trkpt lat="43.08666" lon="6.04476">
        <ele>220.06411743164</ele>
        <time>2017-04-17T10:13:40Z</time>
      </trkpt>
      <trkpt lat="43.08663" lon="6.04472">
        <ele>219.13432312012</ele>
        <time>2017-04-17T10:13:42Z</time>
      </trkpt>
      <trkpt lat="43.08661" lon="6.04468">
        <ele>218.33908081055</ele>
        <time>2017-04-17T10:13:44Z</time>
      </trkpt>
      <trkpt lat="43.08656" lon="6.04463">
        <ele>217.60095214844</ele>
        <time>2017-04-17T10:13:47Z</time>
      </trkpt>
      <trkpt lat="43.08652" lon="6.04456">
        <ele>216.8550567627</ele>
        <time>2017-04-17T10:13:50Z</time>
      </trkpt>
      <trkpt lat="43.08651" lon="6.0445">
        <ele>216.22763061523</ele>
        <time>2017-04-17T10:13:53Z</time>
      </trkpt>
      <trkpt lat="43.08648" lon="6.04446">
        <ele>215.63871765137</ele>
        <time>2017-04-17T10:13:55Z</time>
      </trkpt>
      <trkpt lat="43.08642" lon="6.04444">
        <ele>215.06130981445</ele>
        <time>2017-04-17T10:13:58Z</time>
      </trkpt>
      <trkpt lat="43.08639" lon="6.04441">
        <ele>214.61108398438</ele>
        <time>2017-04-17T10:14:00Z</time>
      </trkpt>
      <trkpt lat="43.08635" lon="6.04438">
        <ele>214.22871398926</ele>
        <time>2017-04-17T10:14:03Z</time>
      </trkpt>
      <trkpt lat="43.08631" lon="6.04435">
        <ele>213.87211608887</ele>
        <time>2017-04-17T10:14:06Z</time>
      </trkpt>
      <trkpt lat="43.08627" lon="6.04431">
        <ele>213.54708862305</ele>
        <time>2017-04-17T10:14:09Z</time>
      </trkpt>
      <trkpt lat="43.08624" lon="6.04428">
        <ele>213.29272460938</ele>
        <time>2017-04-17T10:14:11Z</time>
      </trkpt>
      <trkpt lat="43.0862" lon="6.04424">
        <ele>213.07563781738</ele>
        <time>2017-04-17T10:14:14Z</time>
      </trkpt>
      <trkpt lat="43.08617" lon="6.04422">
        <ele>212.90780639648</ele>
        <time>2017-04-17T10:14:16Z</time>
      </trkpt>
      <trkpt lat="43.08614" lon="6.04416">
        <ele>212.80180358887</ele>
        <time>2017-04-17T10:14:19Z</time>
      </trkpt>
      <trkpt lat="43.08612" lon="6.04411">
        <ele>212.66337585449</ele>
        <time>2017-04-17T10:14:21Z</time>
      </trkpt>
      <trkpt lat="43.0861" lon="6.04404">
        <ele>212.45211791992</ele>
        <time>2017-04-17T10:14:24Z</time>
      </trkpt>
      <trkpt lat="43.08609" lon="6.04397">
        <ele>212.17106628418</ele>
        <time>2017-04-17T10:14:27Z</time>
      </trkpt>
      <trkpt lat="43.08608" lon="6.04393">
        <ele>211.85317993164</ele>
        <time>2017-04-17T10:14:29Z</time>
      </trkpt>
      <trkpt lat="43.08605" lon="6.04388">
        <ele>211.4799041748</ele>
        <time>2017-04-17T10:14:32Z</time>
      </trkpt>
      <trkpt lat="43.08602" lon="6.04384">
        <ele>211.15657043457</ele>
        <time>2017-04-17T10:14:34Z</time>
      </trkpt>
      <trkpt lat="43.086" lon="6.0438">
        <ele>210.90888977051</ele>
        <time>2017-04-17T10:14:36Z</time>
      </trkpt>
      <trkpt lat="43.08597" lon="6.04374">
        <ele>210.71138000488</ele>
        <time>2017-04-17T10:14:39Z</time>
      </trkpt>
      <trkpt lat="43.08596" lon="6.04369">
        <ele>210.52937316895</ele>
        <time>2017-04-17T10:14:41Z</time>
      </trkpt>
      <trkpt lat="43.08595" lon="6.04363">
        <ele>210.37240600586</ele>
        <time>2017-04-17T10:14:44Z</time>
      </trkpt>
      <trkpt lat="43.08595" lon="6.04359">
        <ele>210.20260620117</ele>
        <time>2017-04-17T10:14:46Z</time>
      </trkpt>
      <trkpt lat="43.08596" lon="6.04351">
        <ele>209.96493530273</ele>
        <time>2017-04-17T10:14:49Z</time>
      </trkpt>
      <trkpt lat="43.08598" lon="6.04347">
        <ele>209.71127319336</ele>
        <time>2017-04-17T10:14:51Z</time>
      </trkpt>
      <trkpt lat="43.08597" lon="6.04342">
        <ele>209.45492553711</ele>
        <time>2017-04-17T10:14:53Z</time>
      </trkpt>
      <trkpt lat="43.08594" lon="6.04335">
        <ele>209.2233581543</ele>
        <time>2017-04-17T10:14:56Z</time>
      </trkpt>
      <trkpt lat="43.08592" lon="6.04331">
        <ele>208.98979187012</ele>
        <time>2017-04-17T10:14:58Z</time>
      </trkpt>
      <trkpt lat="43.08587" lon="6.04325">
        <ele>208.77597045898</ele>
        <time>2017-04-17T10:15:01Z</time>
      </trkpt>
      <trkpt lat="43.08584" lon="6.04322">
        <ele>208.58059692383</ele>
        <time>2017-04-17T10:15:03Z</time>
      </trkpt>
      <trkpt lat="43.08581" lon="6.04319">
        <ele>208.39501953125</ele>
        <time>2017-04-17T10:15:05Z</time>
      </trkpt>
      <trkpt lat="43.08578" lon="6.04315">
        <ele>208.17492675781</ele>
        <time>2017-04-17T10:15:07Z</time>
      </trkpt>
      <trkpt lat="43.08574" lon="6.04313">
        <ele>207.9947052002</ele>
        <time>2017-04-17T10:15:09Z</time>
      </trkpt>
      <trkpt lat="43.08568" lon="6.04309">
        <ele>207.9340057373</ele>
        <time>2017-04-17T10:15:12Z</time>
      </trkpt>
      <trkpt lat="43.08566" lon="6.04306">
        <ele>207.88833618164</ele>
        <time>2017-04-17T10:15:14Z</time>
      </trkpt>
      <trkpt lat="43.08563" lon="6.04303">
        <ele>207.85705566406</ele>
        <time>2017-04-17T10:15:16Z</time>
      </trkpt>
      <trkpt lat="43.08559" lon="6.04301">
        <ele>207.87922668457</ele>
        <time>2017-04-17T10:15:18Z</time>
      </trkpt>
      <trkpt lat="43.08554" lon="6.04297">
        <ele>207.958984375</ele>
        <time>2017-04-17T10:15:21Z</time>
      </trkpt>
      <trkpt lat="43.0855" lon="6.04293">
        <ele>208.03205871582</ele>
        <time>2017-04-17T10:15:24Z</time>
      </trkpt>
      <trkpt lat="43.08547" lon="6.04291">
        <ele>208.13175964355</ele>
        <time>2017-04-17T10:15:26Z</time>
      </trkpt>
      <trkpt lat="43.08544" lon="6.04288">
        <ele>208.27047729492</ele>
        <time>2017-04-17T10:15:28Z</time>
      </trkpt>
      <trkpt lat="43.08541" lon="6.04286">
        <ele>208.4192199707</ele>
        <time>2017-04-17T10:15:30Z</time>
      </trkpt>
      <trkpt lat="43.08537" lon="6.04282">
        <ele>208.5866394043</ele>
        <time>2017-04-17T10:15:33Z</time>
      </trkpt>
      <trkpt lat="43.08533" lon="6.04278">
        <ele>208.74844360352</ele>
        <time>2017-04-17T10:15:36Z</time>
      </trkpt>
      <trkpt lat="43.0853" lon="6.04275">
        <ele>208.94584655762</ele>
        <time>2017-04-17T10:15:38Z</time>
      </trkpt>
      <trkpt lat="43.08527" lon="6.04271">
        <ele>209.14311218262</ele>
        <time>2017-04-17T10:15:41Z</time>
      </trkpt>
      <trkpt lat="43.08525" lon="6.04268">
        <ele>209.35942077637</ele>
        <time>2017-04-17T10:15:43Z</time>
      </trkpt>
      <trkpt lat="43.08521" lon="6.04264">
        <ele>209.5654296875</ele>
        <time>2017-04-17T10:15:46Z</time>
      </trkpt>
      <trkpt lat="43.08519" lon="6.04261">
        <ele>209.77883911133</ele>
        <time>2017-04-17T10:15:48Z</time>
      </trkpt>
      <trkpt lat="43.08515" lon="6.04256">
        <ele>210.02090454102</ele>
        <time>2017-04-17T10:15:51Z</time>
      </trkpt>
      <trkpt lat="43.08511" lon="6.04251">
        <ele>210.29348754883</ele>
        <time>2017-04-17T10:15:54Z</time>
      </trkpt>
      <trkpt lat="43.08507" lon="6.04246">
        <ele>210.61845397949</ele>
        <time>2017-04-17T10:15:57Z</time>
      </trkpt>
      <trkpt lat="43.08504" lon="6.0424">
        <ele>210.87573242188</ele>
        <time>2017-04-17T10:16:00Z</time>
      </trkpt>
      <trkpt lat="43.08501" lon="6.04234">
        <ele>211.13984680176</ele>
        <time>2017-04-17T10:16:03Z</time>
      </trkpt>
      <trkpt lat="43.08498" lon="6.04229">
        <ele>211.2142791748</ele>
        <time>2017-04-17T10:16:06Z</time>
      </trkpt>
      <trkpt lat="43.08496" lon="6.04225">
        <ele>211.09443664551</ele>
        <time>2017-04-17T10:16:08Z</time>
      </trkpt>
      <trkpt lat="43.08494" lon="6.0422">
        <ele>210.67349243164</ele>
        <time>2017-04-17T10:16:11Z</time>
      </trkpt>
      <trkpt lat="43.08492" lon="6.04214">
        <ele>210.07890319824</ele>
        <time>2017-04-17T10:16:14Z</time>
      </trkpt>
      <trkpt lat="43.08491" lon="6.04209">
        <ele>209.32052612305</ele>
        <time>2017-04-17T10:16:16Z</time>
      </trkpt>
      <trkpt lat="43.0849" lon="6.04204">
        <ele>208.56985473633</ele>
        <time>2017-04-17T10:16:18Z</time>
      </trkpt>
      <trkpt lat="43.08488" lon="6.04197">
        <ele>207.8059387207</ele>
        <time>2017-04-17T10:16:21Z</time>
      </trkpt>
      <trkpt lat="43.08487" lon="6.04191">
        <ele>207.1416015625</ele>
        <time>2017-04-17T10:16:24Z</time>
      </trkpt>
      <trkpt lat="43.08486" lon="6.04186">
        <ele>206.55595397949</ele>
        <time>2017-04-17T10:16:26Z</time>
      </trkpt>
      <trkpt lat="43.08484" lon="6.04182">
        <ele>205.96635437012</ele>
        <time>2017-04-17T10:16:28Z</time>
      </trkpt>
      <trkpt lat="43.08481" lon="6.04176">
        <ele>205.31965637207</ele>
        <time>2017-04-17T10:16:31Z</time>
      </trkpt>
      <trkpt lat="43.0848" lon="6.04168">
        <ele>204.73208618164</ele>
        <time>2017-04-17T10:16:34Z</time>
      </trkpt>
      <trkpt lat="43.08479" lon="6.04163">
        <ele>204.19258117676</ele>
        <time>2017-04-17T10:16:36Z</time>
      </trkpt>
      <trkpt lat="43.08479" lon="6.04158">
        <ele>203.73965454102</ele>
        <time>2017-04-17T10:16:38Z</time>
      </trkpt>
      <trkpt lat="43.08478" lon="6.04152">
        <ele>203.39657592773</ele>
        <time>2017-04-17T10:16:40Z</time>
      </trkpt>
      <trkpt lat="43.08477" lon="6.04145">
        <ele>203.19998168945</ele>
        <time>2017-04-17T10:16:43Z</time>
      </trkpt>
      <trkpt lat="43.08475" lon="6.04137">
        <ele>203.0680847168</ele>
        <time>2017-04-17T10:16:46Z</time>
      </trkpt>
      <trkpt lat="43.08473" lon="6.0413">
        <ele>202.97912597656</ele>
        <time>2017-04-17T10:16:49Z</time>
      </trkpt>
      <trkpt lat="43.08471" lon="6.04123">
        <ele>202.9061126709</ele>
        <time>2017-04-17T10:16:52Z</time>
      </trkpt>
      <trkpt lat="43.08469" lon="6.04116">
        <ele>202.85928344727</ele>
        <time>2017-04-17T10:16:55Z</time>
      </trkpt>
      <trkpt lat="43.08466" lon="6.0411">
        <ele>202.8703918457</ele>
        <time>2017-04-17T10:16:58Z</time>
      </trkpt>
      <trkpt lat="43.08466" lon="6.04105">
        <ele>202.94267272949</ele>
        <time>2017-04-17T10:17:00Z</time>
      </trkpt>
      <trkpt lat="43.08464" lon="6.04099">
        <ele>203.07873535156</ele>
        <time>2017-04-17T10:17:03Z</time>
      </trkpt>
      <trkpt lat="43.08464" lon="6.04095">
        <ele>203.25192260742</ele>
        <time>2017-04-17T10:17:05Z</time>
      </trkpt>
      <trkpt lat="43.08465" lon="6.04087">
        <ele>203.46980285645</ele>
        <time>2017-04-17T10:17:08Z</time>
      </trkpt>
      <trkpt lat="43.08466" lon="6.04079">
        <ele>203.61325073242</ele>
        <time>2017-04-17T10:17:11Z</time>
      </trkpt>
      <trkpt lat="43.08467" lon="6.04071">
        <ele>203.61581420898</ele>
        <time>2017-04-17T10:17:14Z</time>
      </trkpt>
      <trkpt lat="43.08467" lon="6.04063">
        <ele>203.4588470459</ele>
        <time>2017-04-17T10:17:17Z</time>
      </trkpt>
      <trkpt lat="43.08467" lon="6.04058">
        <ele>203.18940734863</ele>
        <time>2017-04-17T10:17:19Z</time>
      </trkpt>
      <trkpt lat="43.08467" lon="6.04053">
        <ele>202.79333496094</ele>
        <time>2017-04-17T10:17:21Z</time>
      </trkpt>
      <trkpt lat="43.08464" lon="6.04046">
        <ele>202.4493560791</ele>
        <time>2017-04-17T10:17:24Z</time>
      </trkpt>
      <trkpt lat="43.08461" lon="6.0404">
        <ele>202.26138305664</ele>
        <time>2017-04-17T10:17:27Z</time>
      </trkpt>
      <trkpt lat="43.08458" lon="6.04033">
        <ele>202.23764038086</ele>
        <time>2017-04-17T10:17:30Z</time>
      </trkpt>
      <trkpt lat="43.08455" lon="6.04027">
        <ele>202.31376647949</ele>
        <time>2017-04-17T10:17:33Z</time>
      </trkpt>
      <trkpt lat="43.08454" lon="6.04022">
        <ele>202.47387695312</ele>
        <time>2017-04-17T10:17:35Z</time>
      </trkpt>
      <trkpt lat="43.08452" lon="6.04015">
        <ele>202.67012023926</ele>
        <time>2017-04-17T10:17:38Z</time>
      </trkpt>
      <trkpt lat="43.08449" lon="6.04008">
        <ele>202.9228515625</ele>
        <time>2017-04-17T10:17:41Z</time>
      </trkpt>
      <trkpt lat="43.08447" lon="6.04002">
        <ele>203.22213745117</ele>
        <time>2017-04-17T10:17:44Z</time>
      </trkpt>
      <trkpt lat="43.08445" lon="6.03995">
        <ele>203.4546661377</ele>
        <time>2017-04-17T10:17:47Z</time>
      </trkpt>
      <trkpt lat="43.08444" lon="6.03991">
        <ele>203.59114074707</ele>
        <time>2017-04-17T10:17:49Z</time>
      </trkpt>
      <trkpt lat="43.08442" lon="6.03984">
        <ele>203.63529968262</ele>
        <time>2017-04-17T10:17:52Z</time>
      </trkpt>
      <trkpt lat="43.08439" lon="6.03978">
        <ele>203.52914428711</ele>
        <time>2017-04-17T10:17:55Z</time>
      </trkpt>
      <trkpt lat="43.08435" lon="6.03972">
        <ele>203.42805480957</ele>
        <time>2017-04-17T10:17:58Z</time>
      </trkpt>
      <trkpt lat="43.08431" lon="6.03971">
        <ele>203.54156494141</ele>
        <time>2017-04-17T10:18:00Z</time>
      </trkpt>
      <trkpt lat="43.08426" lon="6.03972">
        <ele>204.04153442383</ele>
        <time>2017-04-17T10:18:02Z</time>
      </trkpt>
      <trkpt lat="43.0842" lon="6.03973">
        <ele>204.94282531738</ele>
        <time>2017-04-17T10:18:05Z</time>
      </trkpt>
      <trkpt lat="43.08416" lon="6.03973">
        <ele>206.06767272949</ele>
        <time>2017-04-17T10:18:07Z</time>
      </trkpt>
      <trkpt lat="43.08412" lon="6.03976">
        <ele>206.88481140137</ele>
        <time>2017-04-17T10:18:10Z</time>
      </trkpt>
      <trkpt lat="43.08408" lon="6.03979">
        <ele>207.3423614502</ele>
        <time>2017-04-17T10:18:12Z</time>
      </trkpt>
      <trkpt lat="43.08403" lon="6.03979">
        <ele>207.15524291992</ele>
        <time>2017-04-17T10:18:15Z</time>
      </trkpt>
      <trkpt lat="43.084" lon="6.03978">
        <ele>206.4086151123</ele>
        <time>2017-04-17T10:18:17Z</time>
      </trkpt>
      <trkpt lat="43.08397" lon="6.03978">
        <ele>205.28234863281</ele>
        <time>2017-04-17T10:18:19Z</time>
      </trkpt>
      <trkpt lat="43.08394" lon="6.03981">
        <ele>204.21549987793</ele>
        <time>2017-04-17T10:18:21Z</time>
      </trkpt>
      <trkpt lat="43.08393" lon="6.03986">
        <ele>203.3050994873</ele>
        <time>2017-04-17T10:18:23Z</time>
      </trkpt>
      <trkpt lat="43.08394" lon="6.03994">
        <ele>202.92642211914</ele>
        <time>2017-04-17T10:18:26Z</time>
      </trkpt>
      <trkpt lat="43.08395" lon="6.04">
        <ele>202.92034912109</ele>
        <time>2017-04-17T10:18:28Z</time>
      </trkpt>
      <trkpt lat="43.08396" lon="6.04005">
        <ele>203.11528015137</ele>
        <time>2017-04-17T10:18:30Z</time>
      </trkpt>
      <trkpt lat="43.08395" lon="6.04012">
        <ele>203.28764343262</ele>
        <time>2017-04-17T10:18:33Z</time>
      </trkpt>
      <trkpt lat="43.08393" lon="6.04016">
        <ele>203.29948425293</ele>
        <time>2017-04-17T10:18:35Z</time>
      </trkpt>
      <trkpt lat="43.08392" lon="6.04024">
        <ele>202.8447265625</ele>
        <time>2017-04-17T10:18:38Z</time>
      </trkpt>
      <trkpt lat="43.08392" lon="6.04028">
        <ele>202.1526184082</ele>
        <time>2017-04-17T10:18:40Z</time>
      </trkpt>
      <trkpt lat="43.08394" lon="6.04034">
        <ele>201.60014343262</ele>
        <time>2017-04-17T10:18:43Z</time>
      </trkpt>
      <trkpt lat="43.084" lon="6.04038">
        <ele>201.57354736328</ele>
        <time>2017-04-17T10:18:46Z</time>
      </trkpt>
      <trkpt lat="43.08404" lon="6.04039">
        <ele>202.03500366211</ele>
        <time>2017-04-17T10:18:48Z</time>
      </trkpt>
      <trkpt lat="43.08409" lon="6.04043">
        <ele>203.10618591309</ele>
        <time>2017-04-17T10:18:51Z</time>
      </trkpt>
      <trkpt lat="43.08411" lon="6.04046">
        <ele>204.39608764648</ele>
        <time>2017-04-17T10:18:53Z</time>
      </trkpt>
      <trkpt lat="43.08413" lon="6.0405">
        <ele>205.66020202637</ele>
        <time>2017-04-17T10:18:55Z</time>
      </trkpt>
      <trkpt lat="43.08415" lon="6.04054">
        <ele>206.6842956543</ele>
        <time>2017-04-17T10:18:57Z</time>
      </trkpt>
      <trkpt lat="43.0842" lon="6.04058">
        <ele>207.40817260742</ele>
        <time>2017-04-17T10:19:00Z</time>
      </trkpt>
      <trkpt lat="43.08422" lon="6.04061">
        <ele>207.69416809082</ele>
        <time>2017-04-17T10:19:02Z</time>
      </trkpt>
      <trkpt lat="43.08427" lon="6.04067">
        <ele>207.68823242188</ele>
        <time>2017-04-17T10:19:05Z</time>
      </trkpt>
      <trkpt lat="43.08429" lon="6.04071">
        <ele>207.50155639648</ele>
        <time>2017-04-17T10:19:07Z</time>
      </trkpt>
      <trkpt lat="43.08433" lon="6.04077">
        <ele>207.10205078125</ele>
        <time>2017-04-17T10:19:10Z</time>
      </trkpt>
      <trkpt lat="43.08438" lon="6.04081">
        <ele>206.61567687988</ele>
        <time>2017-04-17T10:19:13Z</time>
      </trkpt>
      <trkpt lat="43.08442" lon="6.04083">
        <ele>206.18574523926</ele>
        <time>2017-04-17T10:19:15Z</time>
      </trkpt>
      <trkpt lat="43.08444" lon="6.04086">
        <ele>205.81323242188</ele>
        <time>2017-04-17T10:19:17Z</time>
      </trkpt>
      <trkpt lat="43.08447" lon="6.04092">
        <ele>205.37490844727</ele>
        <time>2017-04-17T10:19:20Z</time>
      </trkpt>
      <trkpt lat="43.08448" lon="6.04096">
        <ele>204.93746948242</ele>
        <time>2017-04-17T10:19:22Z</time>
      </trkpt>
      <trkpt lat="43.08451" lon="6.04101">
        <ele>204.50234985352</ele>
        <time>2017-04-17T10:19:25Z</time>
      </trkpt>
      <trkpt lat="43.08453" lon="6.04107">
        <ele>204.01083374023</ele>
        <time>2017-04-17T10:19:28Z</time>
      </trkpt>
      <trkpt lat="43.08455" lon="6.04112">
        <ele>203.54211425781</ele>
        <time>2017-04-17T10:19:31Z</time>
      </trkpt>
      <trkpt lat="43.08458" lon="6.04114">
        <ele>203.18850708008</ele>
        <time>2017-04-17T10:19:33Z</time>
      </trkpt>
      <trkpt lat="43.0846" lon="6.04121">
        <ele>202.8660736084</ele>
        <time>2017-04-17T10:19:36Z</time>
      </trkpt>
      <trkpt lat="43.0846" lon="6.04126">
        <ele>202.57357788086</ele>
        <time>2017-04-17T10:19:38Z</time>
      </trkpt>
      <trkpt lat="43.08462" lon="6.04134">
        <ele>202.3233795166</ele>
        <time>2017-04-17T10:19:41Z</time>
      </trkpt>
      <trkpt lat="43.08464" lon="6.04137">
        <ele>202.13626098633</ele>
        <time>2017-04-17T10:19:43Z</time>
      </trkpt>
      <trkpt lat="43.08467" lon="6.04139">
        <ele>202.00723266602</ele>
        <time>2017-04-17T10:19:46Z</time>
      </trkpt>
      <trkpt lat="43.0847" lon="6.0414">
        <ele>202.00137329102</ele>
        <time>2017-04-17T10:19:48Z</time>
      </trkpt>
      <trkpt lat="43.08474" lon="6.04144">
        <ele>202.12051391602</ele>
        <time>2017-04-17T10:19:51Z</time>
      </trkpt>
      <trkpt lat="43.08476" lon="6.04151">
        <ele>202.31980895996</ele>
        <time>2017-04-17T10:19:54Z</time>
      </trkpt>
      <trkpt lat="43.08477" lon="6.04155">
        <ele>202.55534362793</ele>
        <time>2017-04-17T10:19:56Z</time>
      </trkpt>
      <trkpt lat="43.08479" lon="6.04159">
        <ele>202.7868347168</ele>
        <time>2017-04-17T10:19:58Z</time>
      </trkpt>
      <trkpt lat="43.0848" lon="6.04166">
        <ele>203.01083374023</ele>
        <time>2017-04-17T10:20:01Z</time>
      </trkpt>
      <trkpt lat="43.08481" lon="6.04171">
        <ele>203.23063659668</ele>
        <time>2017-04-17T10:20:03Z</time>
      </trkpt>
      <trkpt lat="43.08482" lon="6.04176">
        <ele>203.4965057373</ele>
        <time>2017-04-17T10:20:05Z</time>
      </trkpt>
      <trkpt lat="43.08484" lon="6.04183">
        <ele>203.85055541992</ele>
        <time>2017-04-17T10:20:08Z</time>
      </trkpt>
      <trkpt lat="43.08485" lon="6.04186">
        <ele>204.29080200195</ele>
        <time>2017-04-17T10:20:10Z</time>
      </trkpt>
      <trkpt lat="43.08488" lon="6.04192">
        <ele>204.83415222168</ele>
        <time>2017-04-17T10:20:13Z</time>
      </trkpt>
      <trkpt lat="43.08491" lon="6.04198">
        <ele>205.52893066406</ele>
        <time>2017-04-17T10:20:16Z</time>
      </trkpt>
      <trkpt lat="43.08494" lon="6.04205">
        <ele>206.36483764648</ele>
        <time>2017-04-17T10:20:19Z</time>
      </trkpt>
      <trkpt lat="43.08496" lon="6.04209">
        <ele>207.21342468262</ele>
        <time>2017-04-17T10:20:21Z</time>
      </trkpt>
      <trkpt lat="43.08498" lon="6.04214">
        <ele>208.11116027832</ele>
        <time>2017-04-17T10:20:23Z</time>
      </trkpt>
      <trkpt lat="43.08499" lon="6.04219">
        <ele>209.00004577637</ele>
        <time>2017-04-17T10:20:25Z</time>
      </trkpt>
      <trkpt lat="43.08501" lon="6.04226">
        <ele>209.73977661133</ele>
        <time>2017-04-17T10:20:28Z</time>
      </trkpt>
      <trkpt lat="43.08504" lon="6.04232">
        <ele>210.22392272949</ele>
        <time>2017-04-17T10:20:31Z</time>
      </trkpt>
      <trkpt lat="43.08507" lon="6.04236">
        <ele>210.54544067383</ele>
        <time>2017-04-17T10:20:33Z</time>
      </trkpt>
      <trkpt lat="43.08509" lon="6.0424">
        <ele>210.64309692383</ele>
        <time>2017-04-17T10:20:35Z</time>
      </trkpt>
      <trkpt lat="43.08513" lon="6.04246">
        <ele>210.54597473145</ele>
        <time>2017-04-17T10:20:38Z</time>
      </trkpt>
      <trkpt lat="43.08517" lon="6.04251">
        <ele>210.31132507324</ele>
        <time>2017-04-17T10:20:41Z</time>
      </trkpt>
      <trkpt lat="43.0852" lon="6.04254">
        <ele>210.05781555176</ele>
        <time>2017-04-17T10:20:43Z</time>
      </trkpt>
      <trkpt lat="43.08523" lon="6.04257">
        <ele>209.76045227051</ele>
        <time>2017-04-17T10:20:45Z</time>
      </trkpt>
      <trkpt lat="43.08527" lon="6.04261">
        <ele>209.41708374023</ele>
        <time>2017-04-17T10:20:48Z</time>
      </trkpt>
      <trkpt lat="43.0853" lon="6.04264">
        <ele>209.0902557373</ele>
        <time>2017-04-17T10:20:50Z</time>
      </trkpt>
      <trkpt lat="43.08533" lon="6.04268">
        <ele>208.80293273926</ele>
        <time>2017-04-17T10:20:52Z</time>
      </trkpt>
      <trkpt lat="43.08537" lon="6.04273">
        <ele>208.55786132812</ele>
        <time>2017-04-17T10:20:55Z</time>
      </trkpt>
      <trkpt lat="43.0854" lon="6.04276">
        <ele>208.33071899414</ele>
        <time>2017-04-17T10:20:57Z</time>
      </trkpt>
      <trkpt lat="43.08545" lon="6.0428">
        <ele>208.13647460938</ele>
        <time>2017-04-17T10:21:00Z</time>
      </trkpt>
      <trkpt lat="43.0855" lon="6.04285">
        <ele>207.92463684082</ele>
        <time>2017-04-17T10:21:03Z</time>
      </trkpt>
      <trkpt lat="43.08554" lon="6.0429">
        <ele>207.72319030762</ele>
        <time>2017-04-17T10:21:06Z</time>
      </trkpt>
      <trkpt lat="43.08558" lon="6.04293">
        <ele>207.51461791992</ele>
        <time>2017-04-17T10:21:08Z</time>
      </trkpt>
      <trkpt lat="43.08561" lon="6.04296">
        <ele>207.35400390625</ele>
        <time>2017-04-17T10:21:10Z</time>
      </trkpt>
      <trkpt lat="43.08566" lon="6.04301">
        <ele>207.24630737305</ele>
        <time>2017-04-17T10:21:13Z</time>
      </trkpt>
      <trkpt lat="43.0857" lon="6.04305">
        <ele>207.20791625977</ele>
        <time>2017-04-17T10:21:16Z</time>
      </trkpt>
      <trkpt lat="43.08574" lon="6.0431">
        <ele>207.23417663574</ele>
        <time>2017-04-17T10:21:19Z</time>
      </trkpt>
      <trkpt lat="43.08577" lon="6.04314">
        <ele>207.31729125977</ele>
        <time>2017-04-17T10:21:21Z</time>
      </trkpt>
      <trkpt lat="43.0858" lon="6.04318">
        <ele>207.4634552002</ele>
        <time>2017-04-17T10:21:23Z</time>
      </trkpt>
      <trkpt lat="43.08582" lon="6.04321">
        <ele>207.68965148926</ele>
        <time>2017-04-17T10:21:25Z</time>
      </trkpt>
      <trkpt lat="43.08586" lon="6.04327">
        <ele>207.97232055664</ele>
        <time>2017-04-17T10:21:28Z</time>
      </trkpt>
      <trkpt lat="43.08589" lon="6.0433">
        <ele>208.24154663086</ele>
        <time>2017-04-17T10:21:30Z</time>
      </trkpt>
      <trkpt lat="43.08593" lon="6.04332">
        <ele>208.48796081543</ele>
        <time>2017-04-17T10:21:32Z</time>
      </trkpt>
      <trkpt lat="43.08597" lon="6.04336">
        <ele>208.63452148438</ele>
        <time>2017-04-17T10:21:35Z</time>
      </trkpt>
      <trkpt lat="43.08602" lon="6.0434">
        <ele>208.66146850586</ele>
        <time>2017-04-17T10:21:38Z</time>
      </trkpt>
      <trkpt lat="43.08606" lon="6.04344">
        <ele>208.5647277832</ele>
        <time>2017-04-17T10:21:41Z</time>
      </trkpt>
      <trkpt lat="43.08611" lon="6.04347">
        <ele>208.38052368164</ele>
        <time>2017-04-17T10:21:44Z</time>
      </trkpt>
      <trkpt lat="43.08616" lon="6.04348">
        <ele>208.1332244873</ele>
        <time>2017-04-17T10:21:47Z</time>
      </trkpt>
      <trkpt lat="43.0862" lon="6.0435">
        <ele>207.88510131836</ele>
        <time>2017-04-17T10:21:49Z</time>
      </trkpt>
      <trkpt lat="43.08624" lon="6.04351">
        <ele>207.63957214355</ele>
        <time>2017-04-17T10:21:51Z</time>
      </trkpt>
      <trkpt lat="43.0863" lon="6.04351">
        <ele>207.35165405273</ele>
        <time>2017-04-17T10:21:54Z</time>
      </trkpt>
      <trkpt lat="43.08634" lon="6.04352">
        <ele>207.07559204102</ele>
        <time>2017-04-17T10:21:56Z</time>
      </trkpt>
      <trkpt lat="43.08638" lon="6.04353">
        <ele>206.80419921875</ele>
        <time>2017-04-17T10:21:58Z</time>
      </trkpt>
      <trkpt lat="43.08643" lon="6.04355">
        <ele>206.54219055176</ele>
        <time>2017-04-17T10:22:01Z</time>
      </trkpt>
      <trkpt lat="43.08647" lon="6.04357">
        <ele>206.33865356445</ele>
        <time>2017-04-17T10:22:04Z</time>
      </trkpt>
      <trkpt lat="43.08651" lon="6.04359">
        <ele>206.2230682373</ele>
        <time>2017-04-17T10:22:06Z</time>
      </trkpt>
      <trkpt lat="43.08656" lon="6.04361">
        <ele>206.13247680664</ele>
        <time>2017-04-17T10:22:09Z</time>
      </trkpt>
      <trkpt lat="43.08662" lon="6.0436">
        <ele>205.98886108398</ele>
        <time>2017-04-17T10:22:12Z</time>
      </trkpt>
      <trkpt lat="43.08667" lon="6.0436">
        <ele>205.80891418457</ele>
        <time>2017-04-17T10:22:15Z</time>
      </trkpt>
      <trkpt lat="43.08672" lon="6.04359">
        <ele>205.66772460938</ele>
        <time>2017-04-17T10:22:18Z</time>
      </trkpt>
      <trkpt lat="43.08676" lon="6.04358">
        <ele>205.55363464355</ele>
        <time>2017-04-17T10:22:20Z</time>
      </trkpt>
      <trkpt lat="43.08681" lon="6.04356">
        <ele>205.47891235352</ele>
        <time>2017-04-17T10:22:23Z</time>
      </trkpt>
      <trkpt lat="43.08685" lon="6.04355">
        <ele>205.51663208008</ele>
        <time>2017-04-17T10:22:25Z</time>
      </trkpt>
      <trkpt lat="43.08688" lon="6.04354">
        <ele>205.63668823242</ele>
        <time>2017-04-17T10:22:27Z</time>
      </trkpt>
      <trkpt lat="43.08694" lon="6.04351">
        <ele>205.71215820312</ele>
        <time>2017-04-17T10:22:30Z</time>
      </trkpt>
      <trkpt lat="43.08698" lon="6.04351">
        <ele>205.80331420898</ele>
        <time>2017-04-17T10:22:32Z</time>
      </trkpt>
      <trkpt lat="43.08704" lon="6.0435">
        <ele>205.92263793945</ele>
        <time>2017-04-17T10:22:35Z</time>
      </trkpt>
      <trkpt lat="43.08707" lon="6.0435">
        <ele>206.09725952148</ele>
        <time>2017-04-17T10:22:37Z</time>
      </trkpt>
      <trkpt lat="43.08712" lon="6.04348">
        <ele>206.22946166992</ele>
        <time>2017-04-17T10:22:40Z</time>
      </trkpt>
      <trkpt lat="43.08717" lon="6.04341">
        <ele>206.18229675293</ele>
        <time>2017-04-17T10:22:43Z</time>
      </trkpt>
      <trkpt lat="43.08721" lon="6.04338">
        <ele>205.99618530273</ele>
        <time>2017-04-17T10:22:45Z</time>
      </trkpt>
      <trkpt lat="43.08724" lon="6.04331">
        <ele>205.54895019531</ele>
        <time>2017-04-17T10:22:48Z</time>
      </trkpt>
      <trkpt lat="43.08726" lon="6.04327">
        <ele>204.88925170898</ele>
        <time>2017-04-17T10:22:50Z</time>
      </trkpt>
      <trkpt lat="43.0873" lon="6.04321">
        <ele>204.05798339844</ele>
        <time>2017-04-17T10:22:53Z</time>
      </trkpt>
      <trkpt lat="43.08732" lon="6.04316">
        <ele>203.23492431641</ele>
        <time>2017-04-17T10:22:55Z</time>
      </trkpt>
      <trkpt lat="43.08735" lon="6.04309">
        <ele>202.27665710449</ele>
        <time>2017-04-17T10:22:58Z</time>
      </trkpt>
      <trkpt lat="43.08738" lon="6.04302">
        <ele>201.29183959961</ele>
        <time>2017-04-17T10:23:01Z</time>
      </trkpt>
      <trkpt lat="43.08741" lon="6.04297">
        <ele>200.31045532227</ele>
        <time>2017-04-17T10:23:03Z</time>
      </trkpt>
      <trkpt lat="43.08743" lon="6.04293">
        <ele>199.39073181152</ele>
        <time>2017-04-17T10:23:05Z</time>
      </trkpt>
      <trkpt lat="43.08746" lon="6.04288">
        <ele>198.49317932129</ele>
        <time>2017-04-17T10:23:07Z</time>
      </trkpt>
      <trkpt lat="43.08747" lon="6.04283">
        <ele>197.65274047852</ele>
        <time>2017-04-17T10:23:09Z</time>
      </trkpt>
      <trkpt lat="43.08749" lon="6.04275">
        <ele>196.76196289062</ele>
        <time>2017-04-17T10:23:12Z</time>
      </trkpt>
      <trkpt lat="43.0875" lon="6.04269">
        <ele>195.82934570312</ele>
        <time>2017-04-17T10:23:14Z</time>
      </trkpt>
      <trkpt lat="43.08751" lon="6.04262">
        <ele>194.76181030273</ele>
        <time>2017-04-17T10:23:17Z</time>
      </trkpt>
      <trkpt lat="43.08752" lon="6.04255">
        <ele>193.58032226562</ele>
        <time>2017-04-17T10:23:20Z</time>
      </trkpt>
      <trkpt lat="43.08752" lon="6.04247">
        <ele>192.32034301758</ele>
        <time>2017-04-17T10:23:23Z</time>
      </trkpt>
      <trkpt lat="43.08751" lon="6.04242">
        <ele>191.22427368164</ele>
        <time>2017-04-17T10:23:25Z</time>
      </trkpt>
      <trkpt lat="43.0875" lon="6.04234">
        <ele>190.14318847656</ele>
        <time>2017-04-17T10:23:28Z</time>
      </trkpt>
      <trkpt lat="43.0875" lon="6.04227">
        <ele>189.17204284668</ele>
        <time>2017-04-17T10:23:31Z</time>
      </trkpt>
      <trkpt lat="43.08751" lon="6.0422">
        <ele>188.32344055176</ele>
        <time>2017-04-17T10:23:34Z</time>
      </trkpt>
      <trkpt lat="43.08752" lon="6.04215">
        <ele>187.62228393555</ele>
        <time>2017-04-17T10:23:36Z</time>
      </trkpt>
      <trkpt lat="43.08751" lon="6.04211">
        <ele>186.93673706055</ele>
        <time>2017-04-17T10:23:38Z</time>
      </trkpt>
      <trkpt lat="43.08751" lon="6.04206">
        <ele>186.31680297852</ele>
        <time>2017-04-17T10:23:40Z</time>
      </trkpt>
      <trkpt lat="43.08751" lon="6.04198">
        <ele>185.68420410156</ele>
        <time>2017-04-17T10:23:43Z</time>
      </trkpt>
      <trkpt lat="43.08751" lon="6.04193">
        <ele>185.08058166504</ele>
        <time>2017-04-17T10:23:45Z</time>
      </trkpt>
      <trkpt lat="43.08751" lon="6.04185">
        <ele>184.40710449219</ele>
        <time>2017-04-17T10:23:48Z</time>
      </trkpt>
      <trkpt lat="43.08751" lon="6.0418">
        <ele>183.73597717285</ele>
        <time>2017-04-17T10:23:50Z</time>
      </trkpt>
      <trkpt lat="43.08753" lon="6.04172">
        <ele>183.00424194336</ele>
        <time>2017-04-17T10:23:53Z</time>
      </trkpt>
      <trkpt lat="43.08754" lon="6.04168">
        <ele>182.33282470703</ele>
        <time>2017-04-17T10:23:55Z</time>
      </trkpt>
      <trkpt lat="43.08757" lon="6.04161">
        <ele>181.53645324707</ele>
        <time>2017-04-17T10:23:58Z</time>
      </trkpt>
      <trkpt lat="43.08762" lon="6.04156">
        <ele>180.71110534668</ele>
        <time>2017-04-17T10:24:01Z</time>
      </trkpt>
      <trkpt lat="43.08765" lon="6.04149">
        <ele>179.74722290039</ele>
        <time>2017-04-17T10:24:04Z</time>
      </trkpt>
      <trkpt lat="43.08767" lon="6.04144">
        <ele>178.78866577148</ele>
        <time>2017-04-17T10:24:06Z</time>
      </trkpt>
      <trkpt lat="43.08768" lon="6.0414">
        <ele>177.79794311523</ele>
        <time>2017-04-17T10:24:08Z</time>
      </trkpt>
      <trkpt lat="43.08773" lon="6.04134">
        <ele>176.82247924805</ele>
        <time>2017-04-17T10:24:11Z</time>
      </trkpt>
      <trkpt lat="43.08777" lon="6.04128">
        <ele>175.87243652344</ele>
        <time>2017-04-17T10:24:14Z</time>
      </trkpt>
      <trkpt lat="43.08781" lon="6.04123">
        <ele>175.00303649902</ele>
        <time>2017-04-17T10:24:17Z</time>
      </trkpt>
      <trkpt lat="43.08784" lon="6.0412">
        <ele>174.18193054199</ele>
        <time>2017-04-17T10:24:19Z</time>
      </trkpt>
      <trkpt lat="43.08786" lon="6.04114">
        <ele>173.32978820801</ele>
        <time>2017-04-17T10:24:21Z</time>
      </trkpt>
      <trkpt lat="43.08781" lon="6.04106">
        <ele>172.42346191406</ele>
        <time>2017-04-17T10:24:24Z</time>
      </trkpt>
      <trkpt lat="43.08776" lon="6.04103">
        <ele>171.58908081055</ele>
        <time>2017-04-17T10:24:26Z</time>
      </trkpt>
      <trkpt lat="43.08772" lon="6.04103">
        <ele>170.8950958252</ele>
        <time>2017-04-17T10:24:28Z</time>
      </trkpt>
      <trkpt lat="43.08766" lon="6.04107">
        <ele>170.45788574219</ele>
        <time>2017-04-17T10:24:31Z</time>
      </trkpt>
      <trkpt lat="43.08763" lon="6.04112">
        <ele>170.34286499023</ele>
        <time>2017-04-17T10:24:33Z</time>
      </trkpt>
      <trkpt lat="43.08759" lon="6.04115">
        <ele>170.6177520752</ele>
        <time>2017-04-17T10:24:35Z</time>
      </trkpt>
      <trkpt lat="43.08754" lon="6.0412">
        <ele>171.16835021973</ele>
        <time>2017-04-17T10:24:38Z</time>
      </trkpt>
      <trkpt lat="43.08751" lon="6.04124">
        <ele>171.86187744141</ele>
        <time>2017-04-17T10:24:40Z</time>
      </trkpt>
      <trkpt lat="43.08745" lon="6.04128">
        <ele>172.37223815918</ele>
        <time>2017-04-17T10:24:43Z</time>
      </trkpt>
      <trkpt lat="43.08738" lon="6.04132">
        <ele>172.64520263672</ele>
        <time>2017-04-17T10:24:46Z</time>
      </trkpt>
      <trkpt lat="43.08734" lon="6.04136">
        <ele>172.82406616211</ele>
        <time>2017-04-17T10:24:49Z</time>
      </trkpt>
      <trkpt lat="43.08731" lon="6.04141">
        <ele>172.9091796875</ele>
        <time>2017-04-17T10:24:52Z</time>
      </trkpt>
      <trkpt lat="43.08726" lon="6.04147">
        <ele>172.91276550293</ele>
        <time>2017-04-17T10:24:55Z</time>
      </trkpt>
      <trkpt lat="43.08724" lon="6.0415">
        <ele>173.02713012695</ele>
        <time>2017-04-17T10:24:57Z</time>
      </trkpt>
      <trkpt lat="43.08722" lon="6.04155">
        <ele>173.30342102051</ele>
        <time>2017-04-17T10:24:59Z</time>
      </trkpt>
      <trkpt lat="43.08718" lon="6.04162">
        <ele>173.74299621582</ele>
        <time>2017-04-17T10:25:02Z</time>
      </trkpt>
      <trkpt lat="43.08715" lon="6.0417">
        <ele>174.2502746582</ele>
        <time>2017-04-17T10:25:05Z</time>
      </trkpt>
      <trkpt lat="43.08711" lon="6.04174">
        <ele>174.71913146973</ele>
        <time>2017-04-17T10:25:08Z</time>
      </trkpt>
      <trkpt lat="43.08706" lon="6.04172">
        <ele>174.86576843262</ele>
        <time>2017-04-17T10:25:11Z</time>
      </trkpt>
      <trkpt lat="43.08704" lon="6.04163">
        <ele>174.5743560791</ele>
        <time>2017-04-17T10:25:14Z</time>
      </trkpt>
      <trkpt lat="43.08706" lon="6.04153">
        <ele>173.81037902832</ele>
        <time>2017-04-17T10:25:17Z</time>
      </trkpt>
      <trkpt lat="43.0871" lon="6.04145">
        <ele>172.72926330566</ele>
        <time>2017-04-17T10:25:20Z</time>
      </trkpt>
      <trkpt lat="43.08714" lon="6.04137">
        <ele>171.4709777832</ele>
        <time>2017-04-17T10:25:23Z</time>
      </trkpt>
      <trkpt lat="43.08716" lon="6.04132">
        <ele>170.35000610352</ele>
        <time>2017-04-17T10:25:25Z</time>
      </trkpt>
      <trkpt lat="43.08719" lon="6.04127">
        <ele>169.52578735352</ele>
        <time>2017-04-17T10:25:27Z</time>
      </trkpt>
      <trkpt lat="43.08723" lon="6.04121">
        <ele>168.9020690918</ele>
        <time>2017-04-17T10:25:30Z</time>
      </trkpt>
      <trkpt lat="43.08727" lon="6.04115">
        <ele>168.35144042969</ele>
        <time>2017-04-17T10:25:33Z</time>
      </trkpt>
      <trkpt lat="43.0873" lon="6.04111">
        <ele>167.93412780762</ele>
        <time>2017-04-17T10:25:35Z</time>
      </trkpt>
      <trkpt lat="43.08732" lon="6.04104">
        <ele>167.45846557617</ele>
        <time>2017-04-17T10:25:38Z</time>
      </trkpt>
      <trkpt lat="43.08736" lon="6.04098">
        <ele>166.98747253418</ele>
        <time>2017-04-17T10:25:41Z</time>
      </trkpt>
      <trkpt lat="43.08739" lon="6.04094">
        <ele>166.55758666992</ele>
        <time>2017-04-17T10:25:43Z</time>
      </trkpt>
      <trkpt lat="43.08743" lon="6.04088">
        <ele>166.18916320801</ele>
        <time>2017-04-17T10:25:46Z</time>
      </trkpt>
      <trkpt lat="43.08747" lon="6.04082">
        <ele>165.80795288086</ele>
        <time>2017-04-17T10:25:49Z</time>
      </trkpt>
      <trkpt lat="43.08751" lon="6.04075">
        <ele>165.52090454102</ele>
        <time>2017-04-17T10:25:52Z</time>
      </trkpt>
      <trkpt lat="43.08752" lon="6.0407">
        <ele>165.17272949219</ele>
        <time>2017-04-17T10:25:54Z</time>
      </trkpt>
      <trkpt lat="43.08753" lon="6.04061">
        <ele>164.66186523438</ele>
        <time>2017-04-17T10:25:57Z</time>
      </trkpt>
      <trkpt lat="43.08754" lon="6.04056">
        <ele>164.0577545166</ele>
        <time>2017-04-17T10:25:59Z</time>
      </trkpt>
      <trkpt lat="43.08755" lon="6.04048">
        <ele>163.30305480957</ele>
        <time>2017-04-17T10:26:02Z</time>
      </trkpt>
      <trkpt lat="43.08755" lon="6.04042">
        <ele>162.47122192383</ele>
        <time>2017-04-17T10:26:04Z</time>
      </trkpt>
      <trkpt lat="43.08755" lon="6.04035">
        <ele>161.58996582031</ele>
        <time>2017-04-17T10:26:06Z</time>
      </trkpt>
      <trkpt lat="43.08754" lon="6.04026">
        <ele>160.67672729492</ele>
        <time>2017-04-17T10:26:09Z</time>
      </trkpt>
      <trkpt lat="43.08754" lon="6.04016">
        <ele>159.64279174805</ele>
        <time>2017-04-17T10:26:12Z</time>
      </trkpt>
      <trkpt lat="43.08754" lon="6.0401">
        <ele>158.66178894043</ele>
        <time>2017-04-17T10:26:14Z</time>
      </trkpt>
      <trkpt lat="43.08754" lon="6.04001">
        <ele>157.5947265625</ele>
        <time>2017-04-17T10:26:17Z</time>
      </trkpt>
      <trkpt lat="43.08753" lon="6.03995">
        <ele>156.56956481934</ele>
        <time>2017-04-17T10:26:19Z</time>
      </trkpt>
      <trkpt lat="43.08752" lon="6.03989">
        <ele>155.66337585449</ele>
        <time>2017-04-17T10:26:21Z</time>
      </trkpt>
      <trkpt lat="43.08753" lon="6.0398">
        <ele>154.85177612305</ele>
        <time>2017-04-17T10:26:24Z</time>
      </trkpt>
      <trkpt lat="43.08754" lon="6.03972">
        <ele>154.03576660156</ele>
        <time>2017-04-17T10:26:27Z</time>
      </trkpt>
      <trkpt lat="43.08754" lon="6.03962">
        <ele>153.28894042969</ele>
        <time>2017-04-17T10:26:30Z</time>
      </trkpt>
      <trkpt lat="43.08754" lon="6.03957">
        <ele>152.5708770752</ele>
        <time>2017-04-17T10:26:32Z</time>
      </trkpt>
      <trkpt lat="43.08754" lon="6.03951">
        <ele>151.8531036377</ele>
        <time>2017-04-17T10:26:34Z</time>
      </trkpt>
      <trkpt lat="43.08751" lon="6.03942">
        <ele>151.09541320801</ele>
        <time>2017-04-17T10:26:37Z</time>
      </trkpt>
      <trkpt lat="43.08749" lon="6.03934">
        <ele>150.27896118164</ele>
        <time>2017-04-17T10:26:40Z</time>
      </trkpt>
      <trkpt lat="43.08748" lon="6.03928">
        <ele>149.47566223145</ele>
        <time>2017-04-17T10:26:42Z</time>
      </trkpt>
      <trkpt lat="43.08747" lon="6.03922">
        <ele>148.61770629883</ele>
        <time>2017-04-17T10:26:44Z</time>
      </trkpt>
      <trkpt lat="43.08745" lon="6.03917">
        <ele>147.70137023926</ele>
        <time>2017-04-17T10:26:46Z</time>
      </trkpt>
      <trkpt lat="43.08744" lon="6.03908">
        <ele>146.71022033691</ele>
        <time>2017-04-17T10:26:49Z</time>
      </trkpt>
      <trkpt lat="43.08743" lon="6.039">
        <ele>145.67695617676</ele>
        <time>2017-04-17T10:26:52Z</time>
      </trkpt>
      <trkpt lat="43.08742" lon="6.03894">
        <ele>144.61689758301</ele>
        <time>2017-04-17T10:26:54Z</time>
      </trkpt>
      <trkpt lat="43.08741" lon="6.03889">
        <ele>143.54620361328</ele>
        <time>2017-04-17T10:26:56Z</time>
      </trkpt>
      <trkpt lat="43.08739" lon="6.03881">
        <ele>142.37109375</ele>
        <time>2017-04-17T10:26:59Z</time>
      </trkpt>
      <trkpt lat="43.08738" lon="6.03873">
        <ele>141.19412231445</ele>
        <time>2017-04-17T10:27:02Z</time>
      </trkpt>
      <trkpt lat="43.08736" lon="6.03864">
        <ele>140.00813293457</ele>
        <time>2017-04-17T10:27:05Z</time>
      </trkpt>
      <trkpt lat="43.08735" lon="6.03856">
        <ele>138.75901794434</ele>
        <time>2017-04-17T10:27:08Z</time>
      </trkpt>
      <trkpt lat="43.08735" lon="6.03851">
        <ele>137.52841186523</ele>
        <time>2017-04-17T10:27:10Z</time>
      </trkpt>
      <trkpt lat="43.08736" lon="6.03843">
        <ele>136.41500854492</ele>
        <time>2017-04-17T10:27:13Z</time>
      </trkpt>
      <trkpt lat="43.08737" lon="6.03838">
        <ele>135.49217224121</ele>
        <time>2017-04-17T10:27:15Z</time>
      </trkpt>
      <trkpt lat="43.08738" lon="6.03833">
        <ele>134.76261901855</ele>
        <time>2017-04-17T10:27:17Z</time>
      </trkpt>
      <trkpt lat="43.08741" lon="6.03826">
        <ele>134.2093963623</ele>
        <time>2017-04-17T10:27:20Z</time>
      </trkpt>
      <trkpt lat="43.08743" lon="6.0382">
        <ele>133.7730255127</ele>
        <time>2017-04-17T10:27:22Z</time>
      </trkpt>
      <trkpt lat="43.08744" lon="6.03814">
        <ele>133.42835998535</ele>
        <time>2017-04-17T10:27:24Z</time>
      </trkpt>
      <trkpt lat="43.08747" lon="6.03806">
        <ele>133.10110473633</ele>
        <time>2017-04-17T10:27:27Z</time>
      </trkpt>
      <trkpt lat="43.08749" lon="6.03801">
        <ele>132.8334197998</ele>
        <time>2017-04-17T10:27:29Z</time>
      </trkpt>
      <trkpt lat="43.08749" lon="6.03796">
        <ele>132.52890014648</ele>
        <time>2017-04-17T10:27:31Z</time>
      </trkpt>
      <trkpt lat="43.08747" lon="6.03788">
        <ele>132.02493286133</ele>
        <time>2017-04-17T10:27:34Z</time>
      </trkpt>
      <trkpt lat="43.08744" lon="6.03785">
        <ele>131.36267089844</ele>
        <time>2017-04-17T10:27:36Z</time>
      </trkpt>
      <trkpt lat="43.08737" lon="6.03785">
        <ele>130.51466369629</ele>
        <time>2017-04-17T10:27:39Z</time>
      </trkpt>
      <trkpt lat="43.0873" lon="6.0379">
        <ele>129.51937866211</ele>
        <time>2017-04-17T10:27:42Z</time>
      </trkpt>
      <trkpt lat="43.08725" lon="6.03797">
        <ele>128.56826782227</ele>
        <time>2017-04-17T10:27:45Z</time>
      </trkpt>
      <trkpt lat="43.08721" lon="6.03804">
        <ele>127.87773132324</ele>
        <time>2017-04-17T10:27:48Z</time>
      </trkpt>
      <trkpt lat="43.08717" lon="6.0381">
        <ele>127.41005706787</ele>
        <time>2017-04-17T10:27:50Z</time>
      </trkpt>
      <trkpt lat="43.08715" lon="6.03819">
        <ele>127.28796386719</ele>
        <time>2017-04-17T10:27:53Z</time>
      </trkpt>
      <trkpt lat="43.08714" lon="6.03824">
        <ele>127.42636871338</ele>
        <time>2017-04-17T10:27:55Z</time>
      </trkpt>
      <trkpt lat="43.08713" lon="6.03832">
        <ele>127.74755859375</ele>
        <time>2017-04-17T10:27:58Z</time>
      </trkpt>
      <trkpt lat="43.08712" lon="6.0384">
        <ele>128.19602966309</ele>
        <time>2017-04-17T10:28:01Z</time>
      </trkpt>
      <trkpt lat="43.0871" lon="6.03844">
        <ele>128.70365905762</ele>
        <time>2017-04-17T10:28:03Z</time>
      </trkpt>
      <trkpt lat="43.08707" lon="6.03853">
        <ele>129.19932556152</ele>
        <time>2017-04-17T10:28:06Z</time>
      </trkpt>
      <trkpt lat="43.08706" lon="6.03861">
        <ele>129.74728393555</ele>
        <time>2017-04-17T10:28:09Z</time>
      </trkpt>
      <trkpt lat="43.08704" lon="6.03869">
        <ele>130.27485656738</ele>
        <time>2017-04-17T10:28:12Z</time>
      </trkpt>
      <trkpt lat="43.08702" lon="6.03874">
        <ele>130.70039367676</ele>
        <time>2017-04-17T10:28:14Z</time>
      </trkpt>
      <trkpt lat="43.08701" lon="6.03881">
        <ele>131.22192382812</ele>
        <time>2017-04-17T10:28:17Z</time>
      </trkpt>
      <trkpt lat="43.08701" lon="6.03887">
        <ele>131.75564575195</ele>
        <time>2017-04-17T10:28:19Z</time>
      </trkpt>
      <trkpt lat="43.08701" lon="6.03893">
        <ele>132.28341674805</ele>
        <time>2017-04-17T10:28:21Z</time>
      </trkpt>
      <trkpt lat="43.087" lon="6.03901">
        <ele>132.90487670898</ele>
        <time>2017-04-17T10:28:24Z</time>
      </trkpt>
      <trkpt lat="43.08699" lon="6.03907">
        <ele>133.57377624512</ele>
        <time>2017-04-17T10:28:26Z</time>
      </trkpt>
      <trkpt lat="43.08699" lon="6.03912">
        <ele>134.22135925293</ele>
        <time>2017-04-17T10:28:28Z</time>
      </trkpt>
      <trkpt lat="43.087" lon="6.03917">
        <ele>134.91781616211</ele>
        <time>2017-04-17T10:28:30Z</time>
      </trkpt>
      <trkpt lat="43.08701" lon="6.03925">
        <ele>135.70701599121</ele>
        <time>2017-04-17T10:28:33Z</time>
      </trkpt>
      <trkpt lat="43.08703" lon="6.03933">
        <ele>136.56761169434</ele>
        <time>2017-04-17T10:28:36Z</time>
      </trkpt>
      <trkpt lat="43.08704" lon="6.03939">
        <ele>137.47843933105</ele>
        <time>2017-04-17T10:28:38Z</time>
      </trkpt>
      <trkpt lat="43.08704" lon="6.03948">
        <ele>138.48233032227</ele>
        <time>2017-04-17T10:28:41Z</time>
      </trkpt>
      <trkpt lat="43.08706" lon="6.03953">
        <ele>139.54177856445</ele>
        <time>2017-04-17T10:28:43Z</time>
      </trkpt>
      <trkpt lat="43.08706" lon="6.03957">
        <ele>140.43997192383</ele>
        <time>2017-04-17T10:28:45Z</time>
      </trkpt>
      <trkpt lat="43.08698" lon="6.0396">
        <ele>140.79580688477</ele>
        <time>2017-04-17T10:28:48Z</time>
      </trkpt>
      <trkpt lat="43.08692" lon="6.03952">
        <ele>140.60615539551</ele>
        <time>2017-04-17T10:28:51Z</time>
      </trkpt>
      <trkpt lat="43.08691" lon="6.03943">
        <ele>139.94551086426</ele>
        <time>2017-04-17T10:28:54Z</time>
      </trkpt>
      <trkpt lat="43.08689" lon="6.03934">
        <ele>138.80345153809</ele>
        <time>2017-04-17T10:28:57Z</time>
      </trkpt>
      <trkpt lat="43.08688" lon="6.03929">
        <ele>137.42001342773</ele>
        <time>2017-04-17T10:28:59Z</time>
      </trkpt>
      <trkpt lat="43.08689" lon="6.03921">
        <ele>136.15866088867</ele>
        <time>2017-04-17T10:29:02Z</time>
      </trkpt>
      <trkpt lat="43.08688" lon="6.03916">
        <ele>135.16218566895</ele>
        <time>2017-04-17T10:29:04Z</time>
      </trkpt>
      <trkpt lat="43.08688" lon="6.03908">
        <ele>134.23588562012</ele>
        <time>2017-04-17T10:29:07Z</time>
      </trkpt>
      <trkpt lat="43.08687" lon="6.03903">
        <ele>133.45283508301</ele>
        <time>2017-04-17T10:29:09Z</time>
      </trkpt>
      <trkpt lat="43.08688" lon="6.03894">
        <ele>132.65493774414</ele>
        <time>2017-04-17T10:29:12Z</time>
      </trkpt>
      <trkpt lat="43.08688" lon="6.03889">
        <ele>131.91874694824</ele>
        <time>2017-04-17T10:29:14Z</time>
      </trkpt>
      <trkpt lat="43.08687" lon="6.03881">
        <ele>131.08724975586</ele>
        <time>2017-04-17T10:29:17Z</time>
      </trkpt>
      <trkpt lat="43.08685" lon="6.03872">
        <ele>130.146484375</ele>
        <time>2017-04-17T10:29:20Z</time>
      </trkpt>
      <trkpt lat="43.08683" lon="6.03864">
        <ele>129.07069396973</ele>
        <time>2017-04-17T10:29:23Z</time>
      </trkpt>
      <trkpt lat="43.08682" lon="6.03855">
        <ele>127.9581451416</ele>
        <time>2017-04-17T10:29:26Z</time>
      </trkpt>
      <trkpt lat="43.0868" lon="6.03847">
        <ele>126.69557952881</ele>
        <time>2017-04-17T10:29:29Z</time>
      </trkpt>
      <trkpt lat="43.0868" lon="6.03842">
        <ele>125.5193862915</ele>
        <time>2017-04-17T10:29:31Z</time>
      </trkpt>
      <trkpt lat="43.08679" lon="6.03833">
        <ele>124.40482330322</ele>
        <time>2017-04-17T10:29:34Z</time>
      </trkpt>
      <trkpt lat="43.08678" lon="6.03828">
        <ele>123.40195465088</ele>
        <time>2017-04-17T10:29:36Z</time>
      </trkpt>
      <trkpt lat="43.08678" lon="6.0382">
        <ele>122.4097442627</ele>
        <time>2017-04-17T10:29:39Z</time>
      </trkpt>
      <trkpt lat="43.08677" lon="6.03815">
        <ele>121.49989318848</ele>
        <time>2017-04-17T10:29:41Z</time>
      </trkpt>
      <trkpt lat="43.08675" lon="6.0381">
        <ele>120.57987213135</ele>
        <time>2017-04-17T10:29:43Z</time>
      </trkpt>
      <trkpt lat="43.08673" lon="6.03802">
        <ele>119.62139892578</ele>
        <time>2017-04-17T10:29:46Z</time>
      </trkpt>
      <trkpt lat="43.08673" lon="6.03796">
        <ele>118.66243743896</ele>
        <time>2017-04-17T10:29:48Z</time>
      </trkpt>
      <trkpt lat="43.08672" lon="6.03789">
        <ele>117.70390319824</ele>
        <time>2017-04-17T10:29:51Z</time>
      </trkpt>
      <trkpt lat="43.08672" lon="6.03781">
        <ele>116.72052001953</ele>
        <time>2017-04-17T10:29:54Z</time>
      </trkpt>
      <trkpt lat="43.08672" lon="6.03773">
        <ele>115.71305084229</ele>
        <time>2017-04-17T10:29:57Z</time>
      </trkpt>
      <trkpt lat="43.08672" lon="6.03765">
        <ele>114.76837158203</ele>
        <time>2017-04-17T10:30:00Z</time>
      </trkpt>
      <trkpt lat="43.08672" lon="6.03757">
        <ele>113.81021881104</ele>
        <time>2017-04-17T10:30:03Z</time>
      </trkpt>
      <trkpt lat="43.08673" lon="6.03749">
        <ele>112.88581848145</ele>
        <time>2017-04-17T10:30:06Z</time>
      </trkpt>
      <trkpt lat="43.08673" lon="6.03744">
        <ele>112.02597808838</ele>
        <time>2017-04-17T10:30:08Z</time>
      </trkpt>
      <trkpt lat="43.08675" lon="6.03736">
        <ele>111.18347167969</ele>
        <time>2017-04-17T10:30:11Z</time>
      </trkpt>
      <trkpt lat="43.08675" lon="6.03728">
        <ele>110.32735443115</ele>
        <time>2017-04-17T10:30:14Z</time>
      </trkpt>
      <trkpt lat="43.08676" lon="6.03722">
        <ele>109.5108795166</ele>
        <time>2017-04-17T10:30:16Z</time>
      </trkpt>
      <trkpt lat="43.08677" lon="6.03715">
        <ele>108.65545654297</ele>
        <time>2017-04-17T10:30:19Z</time>
      </trkpt>
      <trkpt lat="43.08678" lon="6.0371">
        <ele>107.85833740234</ele>
        <time>2017-04-17T10:30:21Z</time>
      </trkpt>
      <trkpt lat="43.0868" lon="6.03702">
        <ele>107.10278320312</ele>
        <time>2017-04-17T10:30:24Z</time>
      </trkpt>
      <trkpt lat="43.08681" lon="6.03694">
        <ele>106.40476226807</ele>
        <time>2017-04-17T10:30:27Z</time>
      </trkpt>
      <trkpt lat="43.08681" lon="6.03686">
        <ele>105.61346435547</ele>
        <time>2017-04-17T10:30:30Z</time>
      </trkpt>
      <trkpt lat="43.08681" lon="6.0368">
        <ele>104.88011169434</ele>
        <time>2017-04-17T10:30:32Z</time>
      </trkpt>
      <trkpt lat="43.08681" lon="6.03674">
        <ele>104.07182312012</ele>
        <time>2017-04-17T10:30:34Z</time>
      </trkpt>
      <trkpt lat="43.08681" lon="6.03669">
        <ele>103.22660064697</ele>
        <time>2017-04-17T10:30:36Z</time>
      </trkpt>
      <trkpt lat="43.08683" lon="6.03661">
        <ele>102.41397857666</ele>
        <time>2017-04-17T10:30:39Z</time>
      </trkpt>
      <trkpt lat="43.08683" lon="6.03656">
        <ele>101.77238464355</ele>
        <time>2017-04-17T10:30:41Z</time>
      </trkpt>
      <trkpt lat="43.08685" lon="6.03648">
        <ele>101.19325256348</ele>
        <time>2017-04-17T10:30:44Z</time>
      </trkpt>
      <trkpt lat="43.08685" lon="6.03642">
        <ele>100.66711425781</ele>
        <time>2017-04-17T10:30:46Z</time>
      </trkpt>
      <trkpt lat="43.08686" lon="6.03634">
        <ele>100.20255279541</ele>
        <time>2017-04-17T10:30:49Z</time>
      </trkpt>
      <trkpt lat="43.08687" lon="6.03629">
        <ele>99.808502197266</ele>
        <time>2017-04-17T10:30:51Z</time>
      </trkpt>
      <trkpt lat="43.08688" lon="6.03621">
        <ele>99.375137329102</ele>
        <time>2017-04-17T10:30:54Z</time>
      </trkpt>
      <trkpt lat="43.08689" lon="6.03616">
        <ele>98.94800567627</ele>
        <time>2017-04-17T10:30:56Z</time>
      </trkpt>
      <trkpt lat="43.0869" lon="6.03608">
        <ele>98.500823974609</ele>
        <time>2017-04-17T10:30:59Z</time>
      </trkpt>
      <trkpt lat="43.0869" lon="6.03602">
        <ele>98.046951293945</ele>
        <time>2017-04-17T10:31:01Z</time>
      </trkpt>
      <trkpt lat="43.08691" lon="6.03594">
        <ele>97.496192932129</ele>
        <time>2017-04-17T10:31:04Z</time>
      </trkpt>
      <trkpt lat="43.08691" lon="6.03588">
        <ele>96.939186096191</ele>
        <time>2017-04-17T10:31:06Z</time>
      </trkpt>
      <trkpt lat="43.08692" lon="6.03583">
        <ele>96.394760131836</ele>
        <time>2017-04-17T10:31:08Z</time>
      </trkpt>
      <trkpt lat="43.08693" lon="6.03577">
        <ele>95.899063110352</ele>
        <time>2017-04-17T10:31:10Z</time>
      </trkpt>
      <trkpt lat="43.08694" lon="6.03569">
        <ele>95.421249389648</ele>
        <time>2017-04-17T10:31:13Z</time>
      </trkpt>
      <trkpt lat="43.08695" lon="6.03564">
        <ele>95.038864135742</ele>
        <time>2017-04-17T10:31:15Z</time>
      </trkpt>
      <trkpt lat="43.08697" lon="6.03559">
        <ele>94.724914550781</ele>
        <time>2017-04-17T10:31:17Z</time>
      </trkpt>
      <trkpt lat="43.08698" lon="6.03553">
        <ele>94.452033996582</ele>
        <time>2017-04-17T10:31:19Z</time>
      </trkpt>
      <trkpt lat="43.08701" lon="6.03546">
        <ele>94.18864440918</ele>
        <time>2017-04-17T10:31:22Z</time>
      </trkpt>
      <trkpt lat="43.08702" lon="6.03537">
        <ele>93.872604370117</ele>
        <time>2017-04-17T10:31:25Z</time>
      </trkpt>
      <trkpt lat="43.08702" lon="6.03532">
        <ele>93.507331848145</ele>
        <time>2017-04-17T10:31:27Z</time>
      </trkpt>
      <trkpt lat="43.08701" lon="6.03523">
        <ele>92.98600769043</ele>
        <time>2017-04-17T10:31:30Z</time>
      </trkpt>
      <trkpt lat="43.087" lon="6.03518">
        <ele>92.362083435059</ele>
        <time>2017-04-17T10:31:32Z</time>
      </trkpt>
      <trkpt lat="43.08699" lon="6.0351">
        <ele>91.599365234375</ele>
        <time>2017-04-17T10:31:35Z</time>
      </trkpt>
      <trkpt lat="43.08697" lon="6.03504">
        <ele>90.811752319336</ele>
        <time>2017-04-17T10:31:37Z</time>
      </trkpt>
      <trkpt lat="43.08695" lon="6.03497">
        <ele>89.91047668457</ele>
        <time>2017-04-17T10:31:40Z</time>
      </trkpt>
      <trkpt lat="43.08693" lon="6.03492">
        <ele>89.046546936035</ele>
        <time>2017-04-17T10:31:42Z</time>
      </trkpt>
      <trkpt lat="43.08692" lon="6.03483">
        <ele>88.10627746582</ele>
        <time>2017-04-17T10:31:45Z</time>
      </trkpt>
      <trkpt lat="43.08692" lon="6.03477">
        <ele>87.250717163086</ele>
        <time>2017-04-17T10:31:47Z</time>
      </trkpt>
      <trkpt lat="43.08693" lon="6.03469">
        <ele>86.394958496094</ele>
        <time>2017-04-17T10:31:50Z</time>
      </trkpt>
      <trkpt lat="43.08691" lon="6.03461">
        <ele>85.568084716797</ele>
        <time>2017-04-17T10:31:53Z</time>
      </trkpt>
      <trkpt lat="43.08691" lon="6.03454">
        <ele>84.731231689453</ele>
        <time>2017-04-17T10:31:56Z</time>
      </trkpt>
      <trkpt lat="43.08691" lon="6.03447">
        <ele>83.957473754883</ele>
        <time>2017-04-17T10:31:59Z</time>
      </trkpt>
      <trkpt lat="43.08691" lon="6.03444">
        <ele>83.226387023926</ele>
        <time>2017-04-17T10:32:01Z</time>
      </trkpt>
      <trkpt lat="43.08691" lon="6.03437">
        <ele>82.515930175781</ele>
        <time>2017-04-17T10:32:04Z</time>
      </trkpt>
      <trkpt lat="43.08691" lon="6.03428">
        <ele>81.823043823242</ele>
        <time>2017-04-17T10:32:07Z</time>
      </trkpt>
      <trkpt lat="43.08689" lon="6.0342">
        <ele>81.076263427734</ele>
        <time>2017-04-17T10:32:11Z</time>
      </trkpt>
      <trkpt lat="43.08688" lon="6.03413">
        <ele>80.285263061523</ele>
        <time>2017-04-17T10:32:13Z</time>
      </trkpt>
      <trkpt lat="43.0869" lon="6.03405">
        <ele>79.419456481934</ele>
        <time>2017-04-17T10:32:16Z</time>
      </trkpt>
      <trkpt lat="43.08694" lon="6.03397">
        <ele>78.598159790039</ele>
        <time>2017-04-17T10:32:19Z</time>
      </trkpt>
      <trkpt lat="43.08698" lon="6.0339">
        <ele>77.854942321777</ele>
        <time>2017-04-17T10:32:22Z</time>
      </trkpt>
      <trkpt lat="43.08701" lon="6.03384">
        <ele>77.253173828125</ele>
        <time>2017-04-17T10:32:25Z</time>
      </trkpt>
      <trkpt lat="43.08704" lon="6.03379">
        <ele>76.803283691406</ele>
        <time>2017-04-17T10:32:27Z</time>
      </trkpt>
      <trkpt lat="43.08706" lon="6.03373">
        <ele>76.363868713379</ele>
        <time>2017-04-17T10:32:30Z</time>
      </trkpt>
      <trkpt lat="43.08708" lon="6.03365">
        <ele>75.846855163574</ele>
        <time>2017-04-17T10:32:33Z</time>
      </trkpt>
      <trkpt lat="43.08708" lon="6.03361">
        <ele>75.319564819336</ele>
        <time>2017-04-17T10:32:35Z</time>
      </trkpt>
      <trkpt lat="43.08705" lon="6.03357">
        <ele>74.709396362305</ele>
        <time>2017-04-17T10:32:37Z</time>
      </trkpt>
      <trkpt lat="43.08701" lon="6.03351">
        <ele>73.910415649414</ele>
        <time>2017-04-17T10:32:40Z</time>
      </trkpt>
      <trkpt lat="43.08701" lon="6.03346">
        <ele>73.101165771484</ele>
        <time>2017-04-17T10:32:42Z</time>
      </trkpt>
      <trkpt lat="43.08701" lon="6.0334">
        <ele>72.335800170898</ele>
        <time>2017-04-17T10:32:44Z</time>
      </trkpt>
      <trkpt lat="43.087" lon="6.03334">
        <ele>71.49568939209</ele>
        <time>2017-04-17T10:32:47Z</time>
      </trkpt>
      <trkpt lat="43.08698" lon="6.03327">
        <ele>70.626205444336</ele>
        <time>2017-04-17T10:32:50Z</time>
      </trkpt>
      <trkpt lat="43.08696" lon="6.03323">
        <ele>69.867736816406</ele>
        <time>2017-04-17T10:32:52Z</time>
      </trkpt>
      <trkpt lat="43.08695" lon="6.03317">
        <ele>69.132209777832</ele>
        <time>2017-04-17T10:32:54Z</time>
      </trkpt>
      <trkpt lat="43.08693" lon="6.03309">
        <ele>68.345504760742</ele>
        <time>2017-04-17T10:32:57Z</time>
      </trkpt>
      <trkpt lat="43.08691" lon="6.03303">
        <ele>67.595230102539</ele>
        <time>2017-04-17T10:33:00Z</time>
      </trkpt>
      <trkpt lat="43.08688" lon="6.03297">
        <ele>66.883407592773</ele>
        <time>2017-04-17T10:33:03Z</time>
      </trkpt>
      <trkpt lat="43.08686" lon="6.03291">
        <ele>66.171287536621</ele>
        <time>2017-04-17T10:33:06Z</time>
      </trkpt>
      <trkpt lat="43.08688" lon="6.03289">
        <ele>65.544815063477</ele>
        <time>2017-04-17T10:33:08Z</time>
      </trkpt>
      <trkpt lat="43.08691" lon="6.03289">
        <ele>65.116012573242</ele>
        <time>2017-04-17T10:33:11Z</time>
      </trkpt>
      <trkpt lat="43.08694" lon="6.03286">
        <ele>64.822227478027</ele>
        <time>2017-04-17T10:33:13Z</time>
      </trkpt>
      <trkpt lat="43.08698" lon="6.0328">
        <ele>64.571350097656</ele>
        <time>2017-04-17T10:33:16Z</time>
      </trkpt>
      <trkpt lat="43.08694" lon="6.03275">
        <ele>64.319381713867</ele>
        <time>2017-04-17T10:33:18Z</time>
      </trkpt>
      <trkpt lat="43.08691" lon="6.03271">
        <ele>63.999950408936</ele>
        <time>2017-04-17T10:33:20Z</time>
      </trkpt>
      <trkpt lat="43.08689" lon="6.03264">
        <ele>63.518199920654</ele>
        <time>2017-04-17T10:33:23Z</time>
      </trkpt>
      <trkpt lat="43.08689" lon="6.03259">
        <ele>62.967826843262</ele>
        <time>2017-04-17T10:33:25Z</time>
      </trkpt>
      <trkpt lat="43.08688" lon="6.03253">
        <ele>62.399364471436</ele>
        <time>2017-04-17T10:33:28Z</time>
      </trkpt>
      <trkpt lat="43.08688" lon="6.03246">
        <ele>61.812049865723</ele>
        <time>2017-04-17T10:33:31Z</time>
      </trkpt>
      <trkpt lat="43.08686" lon="6.03243">
        <ele>61.263866424561</ele>
        <time>2017-04-17T10:33:33Z</time>
      </trkpt>
      <trkpt lat="43.08683" lon="6.03238">
        <ele>60.746360778809</ele>
        <time>2017-04-17T10:33:36Z</time>
      </trkpt>
      <trkpt lat="43.0868" lon="6.03235">
        <ele>60.250343322754</ele>
        <time>2017-04-17T10:33:38Z</time>
      </trkpt>
      <trkpt lat="43.08678" lon="6.03232">
        <ele>59.816772460938</ele>
        <time>2017-04-17T10:33:40Z</time>
      </trkpt>
      <trkpt lat="43.08678" lon="6.03229">
        <ele>59.443237304688</ele>
        <time>2017-04-17T10:33:42Z</time>
      </trkpt>
      <trkpt lat="43.08677" lon="6.03223">
        <ele>58.994995117188</ele>
        <time>2017-04-17T10:33:45Z</time>
      </trkpt>
      <trkpt lat="43.08676" lon="6.03219">
        <ele>58.573120117188</ele>
        <time>2017-04-17T10:33:47Z</time>
      </trkpt>
      <trkpt lat="43.08676" lon="6.03212">
        <ele>58.076538085938</ele>
        <time>2017-04-17T10:33:50Z</time>
      </trkpt>
      <trkpt lat="43.08672" lon="6.03207">
        <ele>57.52392578125</ele>
        <time>2017-04-17T10:33:53Z</time>
      </trkpt>
      <trkpt lat="43.0867" lon="6.03202">
        <ele>56.940551757812</ele>
        <time>2017-04-17T10:33:56Z</time>
      </trkpt>
      <trkpt lat="43.0867" lon="6.03197">
        <ele>56.389038085938</ele>
        <time>2017-04-17T10:33:58Z</time>
      </trkpt>
      <trkpt lat="43.08672" lon="6.03192">
        <ele>55.808959960938</ele>
        <time>2017-04-17T10:34:01Z</time>
      </trkpt>
      <trkpt lat="43.08673" lon="6.03189">
        <ele>55.298095703125</ele>
        <time>2017-04-17T10:34:03Z</time>
      </trkpt>
      <trkpt lat="43.08674" lon="6.03184">
        <ele>54.80810546875</ele>
        <time>2017-04-17T10:34:06Z</time>
      </trkpt>
      <trkpt lat="43.08675" lon="6.03181">
        <ele>54.349975585938</ele>
        <time>2017-04-17T10:34:08Z</time>
      </trkpt>
      <trkpt lat="43.08675" lon="6.03174">
        <ele>53.846801757812</ele>
        <time>2017-04-17T10:34:11Z</time>
      </trkpt>
      <trkpt lat="43.08675" lon="6.03168">
        <ele>53.3271484375</ele>
        <time>2017-04-17T10:34:13Z</time>
      </trkpt>
      <trkpt lat="43.08673" lon="6.03159">
        <ele>52.737987518311</ele>
        <time>2017-04-17T10:34:16Z</time>
      </trkpt>
      <trkpt lat="43.08672" lon="6.03153">
        <ele>52.161277770996</ele>
        <time>2017-04-17T10:34:18Z</time>
      </trkpt>
      <trkpt lat="43.0867" lon="6.03147">
        <ele>51.582008361816</ele>
        <time>2017-04-17T10:34:20Z</time>
      </trkpt>
      <trkpt lat="43.0867" lon="6.03139">
        <ele>51.027637481689</ele>
        <time>2017-04-17T10:34:23Z</time>
      </trkpt>
      <trkpt lat="43.08672" lon="6.03131">
        <ele>50.48974609375</ele>
        <time>2017-04-17T10:34:26Z</time>
      </trkpt>
      <trkpt lat="43.08673" lon="6.03125">
        <ele>50.00634765625</ele>
        <time>2017-04-17T10:34:28Z</time>
      </trkpt>
      <trkpt lat="43.08674" lon="6.03117">
        <ele>49.488525390625</ele>
        <time>2017-04-17T10:34:31Z</time>
      </trkpt>
      <trkpt lat="43.08673" lon="6.03111">
        <ele>48.968505859375</ele>
        <time>2017-04-17T10:34:33Z</time>
      </trkpt>
      <trkpt lat="43.08673" lon="6.03103">
        <ele>48.4521484375</ele>
        <time>2017-04-17T10:34:36Z</time>
      </trkpt>
      <trkpt lat="43.08672" lon="6.03095">
        <ele>47.931396484375</ele>
        <time>2017-04-17T10:34:39Z</time>
      </trkpt>
      <trkpt lat="43.08671" lon="6.03089">
        <ele>47.406982421875</ele>
        <time>2017-04-17T10:34:41Z</time>
      </trkpt>
      <trkpt lat="43.08672" lon="6.0308">
        <ele>46.883003234863</ele>
        <time>2017-04-17T10:34:44Z</time>
      </trkpt>
      <trkpt lat="43.08673" lon="6.03072">
        <ele>46.341262817383</ele>
        <time>2017-04-17T10:34:47Z</time>
      </trkpt>
      <trkpt lat="43.08673" lon="6.03062">
        <ele>45.799709320068</ele>
        <time>2017-04-17T10:34:50Z</time>
      </trkpt>
      <trkpt lat="43.08672" lon="6.03053">
        <ele>45.269161224365</ele>
        <time>2017-04-17T10:34:53Z</time>
      </trkpt>
      <trkpt lat="43.08672" lon="6.03047">
        <ele>44.750343322754</ele>
        <time>2017-04-17T10:34:55Z</time>
      </trkpt>
      <trkpt lat="43.08672" lon="6.03041">
        <ele>44.281421661377</ele>
        <time>2017-04-17T10:34:57Z</time>
      </trkpt>
      <trkpt lat="43.08672" lon="6.03032">
        <ele>43.799171447754</ele>
        <time>2017-04-17T10:35:00Z</time>
      </trkpt>
      <trkpt lat="43.08672" lon="6.03026">
        <ele>43.360961914062</ele>
        <time>2017-04-17T10:35:02Z</time>
      </trkpt>
      <trkpt lat="43.08672" lon="6.03017">
        <ele>42.921417236328</ele>
        <time>2017-04-17T10:35:05Z</time>
      </trkpt>
      <trkpt lat="43.08673" lon="6.03011">
        <ele>42.486114501953</ele>
        <time>2017-04-17T10:35:07Z</time>
      </trkpt>
      <trkpt lat="43.08675" lon="6.03003">
        <ele>42.012176513672</ele>
        <time>2017-04-17T10:35:10Z</time>
      </trkpt>
      <trkpt lat="43.08675" lon="6.02997">
        <ele>41.587036132812</ele>
        <time>2017-04-17T10:35:12Z</time>
      </trkpt>
      <trkpt lat="43.08673" lon="6.02988">
        <ele>41.15015411377</ele>
        <time>2017-04-17T10:35:15Z</time>
      </trkpt>
      <trkpt lat="43.08673" lon="6.02982">
        <ele>40.768535614014</ele>
        <time>2017-04-17T10:35:17Z</time>
      </trkpt>
      <trkpt lat="43.08675" lon="6.02974">
        <ele>40.374126434326</ele>
        <time>2017-04-17T10:35:20Z</time>
      </trkpt>
      <trkpt lat="43.08678" lon="6.02967">
        <ele>40.015625</ele>
        <time>2017-04-17T10:35:23Z</time>
      </trkpt>
      <trkpt lat="43.08681" lon="6.02961">
        <ele>39.6513671875</ele>
        <time>2017-04-17T10:35:26Z</time>
      </trkpt>
      <trkpt lat="43.08685" lon="6.02954">
        <ele>39.298828125</ele>
        <time>2017-04-17T10:35:29Z</time>
      </trkpt>
      <trkpt lat="43.08687" lon="6.02946">
        <ele>38.921875</ele>
        <time>2017-04-17T10:35:32Z</time>
      </trkpt>
      <trkpt lat="43.08689" lon="6.02942">
        <ele>38.578125</ele>
        <time>2017-04-17T10:35:34Z</time>
      </trkpt>
      <trkpt lat="43.08692" lon="6.02934">
        <ele>38.2275390625</ele>
        <time>2017-04-17T10:35:37Z</time>
      </trkpt>
      <trkpt lat="43.08695" lon="6.02929">
        <ele>37.89111328125</ele>
        <time>2017-04-17T10:35:39Z</time>
      </trkpt>
      <trkpt lat="43.08698" lon="6.02923">
        <ele>37.56640625</ele>
        <time>2017-04-17T10:35:41Z</time>
      </trkpt>
      <trkpt lat="43.08701" lon="6.02915">
        <ele>37.235454559326</ele>
        <time>2017-04-17T10:35:44Z</time>
      </trkpt>
      <trkpt lat="43.08701" lon="6.02909">
        <ele>36.905616760254</ele>
        <time>2017-04-17T10:35:46Z</time>
      </trkpt>
      <trkpt lat="43.08699" lon="6.02903">
        <ele>36.610950469971</ele>
        <time>2017-04-17T10:35:48Z</time>
      </trkpt>
      <trkpt lat="43.08697" lon="6.02897">
        <ele>36.331031799316</ele>
        <time>2017-04-17T10:35:50Z</time>
      </trkpt>
      <trkpt lat="43.08696" lon="6.02888">
        <ele>36.040542602539</ele>
        <time>2017-04-17T10:35:53Z</time>
      </trkpt>
      <trkpt lat="43.08695" lon="6.02878">
        <ele>35.760292053223</ele>
        <time>2017-04-17T10:35:56Z</time>
      </trkpt>
      <trkpt lat="43.08695" lon="6.02872">
        <ele>35.480121612549</ele>
        <time>2017-04-17T10:35:58Z</time>
      </trkpt>
      <trkpt lat="43.08694" lon="6.02864">
        <ele>35.177906036377</ele>
        <time>2017-04-17T10:36:01Z</time>
      </trkpt>
      <trkpt lat="43.08693" lon="6.02858">
        <ele>34.874160766602</ele>
        <time>2017-04-17T10:36:03Z</time>
      </trkpt>
      <trkpt lat="43.08692" lon="6.0285">
        <ele>34.585731506348</ele>
        <time>2017-04-17T10:36:06Z</time>
      </trkpt>
      <trkpt lat="43.08692" lon="6.02841">
        <ele>34.299690246582</ele>
        <time>2017-04-17T10:36:09Z</time>
      </trkpt>
      <trkpt lat="43.08692" lon="6.02833">
        <ele>33.999336242676</ele>
        <time>2017-04-17T10:36:12Z</time>
      </trkpt>
      <trkpt lat="43.08693" lon="6.02826">
        <ele>33.696613311768</ele>
        <time>2017-04-17T10:36:15Z</time>
      </trkpt>
      <trkpt lat="43.08693" lon="6.02821">
        <ele>33.394649505615</ele>
        <time>2017-04-17T10:36:17Z</time>
      </trkpt>
      <trkpt lat="43.08693" lon="6.02813">
        <ele>33.081878662109</ele>
        <time>2017-04-17T10:36:20Z</time>
      </trkpt>
      <trkpt lat="43.08691" lon="6.02808">
        <ele>32.79988861084</ele>
        <time>2017-04-17T10:36:22Z</time>
      </trkpt>
      <trkpt lat="43.08691" lon="6.02802">
        <ele>32.529716491699</ele>
        <time>2017-04-17T10:36:24Z</time>
      </trkpt>
      <trkpt lat="43.08689" lon="6.02793">
        <ele>32.259227752686</ele>
        <time>2017-04-17T10:36:27Z</time>
      </trkpt>
      <trkpt lat="43.08688" lon="6.02784">
        <ele>31.953414916992</ele>
        <time>2017-04-17T10:36:30Z</time>
      </trkpt>
      <trkpt lat="43.08689" lon="6.02776">
        <ele>31.635723114014</ele>
        <time>2017-04-17T10:36:33Z</time>
      </trkpt>
      <trkpt lat="43.08688" lon="6.02767">
        <ele>31.284442901611</ele>
        <time>2017-04-17T10:36:36Z</time>
      </trkpt>
      <trkpt lat="43.08688" lon="6.02762">
        <ele>30.933074951172</ele>
        <time>2017-04-17T10:36:38Z</time>
      </trkpt>
      <trkpt lat="43.08688" lon="6.02756">
        <ele>30.599262237549</ele>
        <time>2017-04-17T10:36:40Z</time>
      </trkpt>
      <trkpt lat="43.08689" lon="6.02747">
        <ele>30.284631729126</ele>
        <time>2017-04-17T10:36:43Z</time>
      </trkpt>
      <trkpt lat="43.08688" lon="6.02741">
        <ele>30.043573379517</ele>
        <time>2017-04-17T10:36:45Z</time>
      </trkpt>
      <trkpt lat="43.08688" lon="6.02735">
        <ele>29.87103843689</ele>
        <time>2017-04-17T10:36:47Z</time>
      </trkpt>
      <trkpt lat="43.08688" lon="6.02729">
        <ele>29.742792129517</ele>
        <time>2017-04-17T10:36:49Z</time>
      </trkpt>
      <trkpt lat="43.08687" lon="6.02721">
        <ele>29.65544128418</ele>
        <time>2017-04-17T10:36:52Z</time>
      </trkpt>
      <trkpt lat="43.08686" lon="6.02716">
        <ele>29.617197036743</ele>
        <time>2017-04-17T10:36:54Z</time>
      </trkpt>
      <trkpt lat="43.08685" lon="6.02707">
        <ele>29.565795898438</ele>
        <time>2017-04-17T10:36:57Z</time>
      </trkpt>
      <trkpt lat="43.08689" lon="6.027">
        <ele>29.529735565186</ele>
        <time>2017-04-17T10:37:00Z</time>
      </trkpt>
      <trkpt lat="43.08694" lon="6.02697">
        <ele>29.53847694397</ele>
        <time>2017-04-17T10:37:03Z</time>
      </trkpt>
      <trkpt lat="43.087" lon="6.02693">
        <ele>29.601099014282</ele>
        <time>2017-04-17T10:37:06Z</time>
      </trkpt>
      <trkpt lat="43.08704" lon="6.02693">
        <ele>29.698223114014</ele>
        <time>2017-04-17T10:37:08Z</time>
      </trkpt>
      <trkpt lat="43.08709" lon="6.02692">
        <ele>29.856552124023</ele>
        <time>2017-04-17T10:37:11Z</time>
      </trkpt>
      <trkpt lat="43.08714" lon="6.02692">
        <ele>30.0380859375</ele>
        <time>2017-04-17T10:37:13Z</time>
      </trkpt>
      <trkpt lat="43.0872" lon="6.02692">
        <ele>30.22896194458</ele>
        <time>2017-04-17T10:37:16Z</time>
      </trkpt>
      <trkpt lat="43.08725" lon="6.02691">
        <ele>30.425497055054</ele>
        <time>2017-04-17T10:37:19Z</time>
      </trkpt>
      <trkpt lat="43.0873" lon="6.02692">
        <ele>30.627643585205</ele>
        <time>2017-04-17T10:37:22Z</time>
      </trkpt>
      <trkpt lat="43.08733" lon="6.02693">
        <ele>30.803274154663</ele>
        <time>2017-04-17T10:37:24Z</time>
      </trkpt>
      <trkpt lat="43.08737" lon="6.02693">
        <ele>30.977197647095</ele>
        <time>2017-04-17T10:37:26Z</time>
      </trkpt>
      <trkpt lat="43.08744" lon="6.02693">
        <ele>31.150863647461</ele>
        <time>2017-04-17T10:37:29Z</time>
      </trkpt>
      <trkpt lat="43.08747" lon="6.02694">
        <ele>31.297016143799</ele>
        <time>2017-04-17T10:37:31Z</time>
      </trkpt>
      <trkpt lat="43.08753" lon="6.02696">
        <ele>31.415176391602</ele>
        <time>2017-04-17T10:37:34Z</time>
      </trkpt>
      <trkpt lat="43.08759" lon="6.02695">
        <ele>31.528570175171</ele>
        <time>2017-04-17T10:37:37Z</time>
      </trkpt>
      <trkpt lat="43.08764" lon="6.02694">
        <ele>31.62619972229</ele>
        <time>2017-04-17T10:37:39Z</time>
      </trkpt>
      <trkpt lat="43.08771" lon="6.02691">
        <ele>31.689746856689</ele>
        <time>2017-04-17T10:37:42Z</time>
      </trkpt>
      <trkpt lat="43.08776" lon="6.02689">
        <ele>31.736343383789</ele>
        <time>2017-04-17T10:37:44Z</time>
      </trkpt>
      <trkpt lat="43.0878" lon="6.02686">
        <ele>31.779684066772</ele>
        <time>2017-04-17T10:37:46Z</time>
      </trkpt>
      <trkpt lat="43.08786" lon="6.02681">
        <ele>31.797622680664</ele>
        <time>2017-04-17T10:37:49Z</time>
      </trkpt>
      <trkpt lat="43.08793" lon="6.02678">
        <ele>31.772287368774</ele>
        <time>2017-04-17T10:37:52Z</time>
      </trkpt>
      <trkpt lat="43.088" lon="6.02676">
        <ele>31.696197509766</ele>
        <time>2017-04-17T10:37:55Z</time>
      </trkpt>
      <trkpt lat="43.08806" lon="6.02672">
        <ele>31.559259414673</ele>
        <time>2017-04-17T10:37:58Z</time>
      </trkpt>
      <trkpt lat="43.08809" lon="6.02669">
        <ele>31.386636734009</ele>
        <time>2017-04-17T10:38:00Z</time>
      </trkpt>
      <trkpt lat="43.08813" lon="6.02667">
        <ele>31.180654525757</ele>
        <time>2017-04-17T10:38:03Z</time>
      </trkpt>
      <trkpt lat="43.08818" lon="6.02662">
        <ele>30.98766708374</ele>
        <time>2017-04-17T10:38:06Z</time>
      </trkpt>
      <trkpt lat="43.08824" lon="6.02658">
        <ele>30.790990829468</ele>
        <time>2017-04-17T10:38:09Z</time>
      </trkpt>
      <trkpt lat="43.0883" lon="6.02655">
        <ele>30.59433555603</ele>
        <time>2017-04-17T10:38:12Z</time>
      </trkpt>
      <trkpt lat="43.08835" lon="6.02656">
        <ele>30.411556243896</ele>
        <time>2017-04-17T10:38:14Z</time>
      </trkpt>
      <trkpt lat="43.08841" lon="6.02652">
        <ele>30.317098617554</ele>
        <time>2017-04-17T10:38:17Z</time>
      </trkpt>
      <trkpt lat="43.08844" lon="6.02649">
        <ele>30.242614746094</ele>
        <time>2017-04-17T10:38:19Z</time>
      </trkpt>
      <trkpt lat="43.0885" lon="6.02642">
        <ele>30.195877075195</ele>
        <time>2017-04-17T10:38:22Z</time>
      </trkpt>
      <trkpt lat="43.08856" lon="6.02635">
        <ele>30.168045043945</ele>
        <time>2017-04-17T10:38:25Z</time>
      </trkpt>
      <trkpt lat="43.08863" lon="6.02634">
        <ele>30.152568817139</ele>
        <time>2017-04-17T10:38:28Z</time>
      </trkpt>
      <trkpt lat="43.08867" lon="6.02633">
        <ele>30.083415985107</ele>
        <time>2017-04-17T10:38:30Z</time>
      </trkpt>
      <trkpt lat="43.08871" lon="6.02632">
        <ele>29.987239837646</ele>
        <time>2017-04-17T10:38:32Z</time>
      </trkpt>
      <trkpt lat="43.08876" lon="6.02631">
        <ele>29.88275718689</ele>
        <time>2017-04-17T10:38:34Z</time>
      </trkpt>
      <trkpt lat="43.08881" lon="6.02627">
        <ele>29.738485336304</ele>
        <time>2017-04-17T10:38:37Z</time>
      </trkpt>
      <trkpt lat="43.08885" lon="6.02621">
        <ele>29.480688095093</ele>
        <time>2017-04-17T10:38:40Z</time>
      </trkpt>
      <trkpt lat="43.08889" lon="6.02617">
        <ele>29.128799438477</ele>
        <time>2017-04-17T10:38:42Z</time>
      </trkpt>
      <trkpt lat="43.08896" lon="6.02616">
        <ele>28.743703842163</ele>
        <time>2017-04-17T10:38:45Z</time>
      </trkpt>
      <trkpt lat="43.08902" lon="6.02615">
        <ele>28.310974121094</ele>
        <time>2017-04-17T10:38:48Z</time>
      </trkpt>
      <trkpt lat="43.08906" lon="6.02613">
        <ele>27.851892471313</ele>
        <time>2017-04-17T10:38:50Z</time>
      </trkpt>
      <trkpt lat="43.0891" lon="6.0261">
        <ele>27.402896881104</ele>
        <time>2017-04-17T10:38:52Z</time>
      </trkpt>
      <trkpt lat="43.08915" lon="6.02606">
        <ele>26.904138565063</ele>
        <time>2017-04-17T10:38:55Z</time>
      </trkpt>
      <trkpt lat="43.08921" lon="6.02604">
        <ele>26.336923599243</ele>
        <time>2017-04-17T10:38:58Z</time>
      </trkpt>
      <trkpt lat="43.08927" lon="6.02602">
        <ele>25.734018325806</ele>
        <time>2017-04-17T10:39:01Z</time>
      </trkpt>
      <trkpt lat="43.08933" lon="6.02599">
        <ele>25.114009857178</ele>
        <time>2017-04-17T10:39:04Z</time>
      </trkpt>
      <trkpt lat="43.08937" lon="6.02597">
        <ele>24.512367248535</ele>
        <time>2017-04-17T10:39:06Z</time>
      </trkpt>
      <trkpt lat="43.08942" lon="6.02593">
        <ele>23.918298721313</ele>
        <time>2017-04-17T10:39:09Z</time>
      </trkpt>
      <trkpt lat="43.08947" lon="6.0259">
        <ele>23.297397613525</ele>
        <time>2017-04-17T10:39:12Z</time>
      </trkpt>
      <trkpt lat="43.08952" lon="6.02586">
        <ele>22.639890670776</ele>
        <time>2017-04-17T10:39:14Z</time>
      </trkpt>
      <trkpt lat="43.08956" lon="6.02582">
        <ele>21.950414657593</ele>
        <time>2017-04-17T10:39:17Z</time>
      </trkpt>
      <trkpt lat="43.0896" lon="6.02579">
        <ele>21.290454864502</ele>
        <time>2017-04-17T10:39:19Z</time>
      </trkpt>
      <trkpt lat="43.08965" lon="6.02577">
        <ele>20.70090675354</ele>
        <time>2017-04-17T10:39:22Z</time>
      </trkpt>
      <trkpt lat="43.08971" lon="6.02576">
        <ele>20.198204040527</ele>
        <time>2017-04-17T10:39:25Z</time>
      </trkpt>
      <trkpt lat="43.08975" lon="6.02576">
        <ele>19.798564910889</ele>
        <time>2017-04-17T10:39:27Z</time>
      </trkpt>
      <trkpt lat="43.0898" lon="6.02576">
        <ele>19.507659912109</ele>
        <time>2017-04-17T10:39:29Z</time>
      </trkpt>
      <trkpt lat="43.08986" lon="6.02573">
        <ele>19.180593490601</ele>
        <time>2017-04-17T10:39:32Z</time>
      </trkpt>
      <trkpt lat="43.0899" lon="6.02573">
        <ele>18.896896362305</ele>
        <time>2017-04-17T10:39:34Z</time>
      </trkpt>
      <trkpt lat="43.08994" lon="6.02572">
        <ele>18.628522872925</ele>
        <time>2017-04-17T10:39:36Z</time>
      </trkpt>
      <trkpt lat="43.09" lon="6.02569">
        <ele>18.281320571899</ele>
        <time>2017-04-17T10:39:39Z</time>
      </trkpt>
      <trkpt lat="43.09004" lon="6.02568">
        <ele>17.879453659058</ele>
        <time>2017-04-17T10:39:41Z</time>
      </trkpt>
      <trkpt lat="43.09009" lon="6.02566">
        <ele>17.474636077881</ele>
        <time>2017-04-17T10:39:44Z</time>
      </trkpt>
      <trkpt lat="43.09015" lon="6.02567">
        <ele>17.014028549194</ele>
        <time>2017-04-17T10:39:47Z</time>
      </trkpt>
      <trkpt lat="43.09019" lon="6.02565">
        <ele>16.502048492432</ele>
        <time>2017-04-17T10:39:49Z</time>
      </trkpt>
      <trkpt lat="43.09026" lon="6.02562">
        <ele>15.956258773804</ele>
        <time>2017-04-17T10:39:52Z</time>
      </trkpt>
      <trkpt lat="43.09032" lon="6.02561">
        <ele>15.386415481567</ele>
        <time>2017-04-17T10:39:55Z</time>
      </trkpt>
      <trkpt lat="43.09041" lon="6.0256">
        <ele>14.784990310669</ele>
        <time>2017-04-17T10:39:58Z</time>
      </trkpt>
      <trkpt lat="43.09049" lon="6.02555">
        <ele>14.063789367676</ele>
        <time>2017-04-17T10:40:01Z</time>
      </trkpt>
      <trkpt lat="43.09053" lon="6.02547">
        <ele>13.236251831055</ele>
        <time>2017-04-17T10:40:04Z</time>
      </trkpt>
      <trkpt lat="43.09056" lon="6.02542">
        <ele>12.44275188446</ele>
        <time>2017-04-17T10:40:06Z</time>
      </trkpt>
      <trkpt lat="43.09059" lon="6.02537">
        <ele>11.66207408905</ele>
        <time>2017-04-17T10:40:08Z</time>
      </trkpt>
      <trkpt lat="43.09065" lon="6.02532">
        <ele>10.85108757019</ele>
        <time>2017-04-17T10:40:11Z</time>
      </trkpt>
      <trkpt lat="43.09069" lon="6.02529">
        <ele>10.169393539429</ele>
        <time>2017-04-17T10:40:13Z</time>
      </trkpt>
      <trkpt lat="43.09076" lon="6.02528">
        <ele>9.5878419876099</ele>
        <time>2017-04-17T10:40:16Z</time>
      </trkpt>
      <trkpt lat="43.09082" lon="6.02529">
        <ele>9.0611791610718</ele>
        <time>2017-04-17T10:40:19Z</time>
      </trkpt>
      <trkpt lat="43.09086" lon="6.02529">
        <ele>8.6118030548096</ele>
        <time>2017-04-17T10:40:21Z</time>
      </trkpt>
      <trkpt lat="43.09093" lon="6.02529">
        <ele>8.2841014862061</ele>
        <time>2017-04-17T10:40:24Z</time>
      </trkpt>
      <trkpt lat="43.09099" lon="6.02528">
        <ele>7.9846177101135</ele>
        <time>2017-04-17T10:40:27Z</time>
      </trkpt>
      <trkpt lat="43.09103" lon="6.02526">
        <ele>7.7424521446228</ele>
        <time>2017-04-17T10:40:29Z</time>
      </trkpt>
      <trkpt lat="43.0911" lon="6.02525">
        <ele>7.5028305053711</ele>
        <time>2017-04-17T10:40:32Z</time>
      </trkpt>
      <trkpt lat="43.09114" lon="6.02525">
        <ele>7.2622222900391</ele>
        <time>2017-04-17T10:40:34Z</time>
      </trkpt>
      <trkpt lat="43.09119" lon="6.02525">
        <ele>7.0395345687866</ele>
        <time>2017-04-17T10:40:37Z</time>
      </trkpt>
      <trkpt lat="43.09125" lon="6.02525">
        <ele>6.8359627723694</ele>
        <time>2017-04-17T10:40:40Z</time>
      </trkpt>
      <trkpt lat="43.09129" lon="6.02526">
        <ele>6.6603021621704</ele>
        <time>2017-04-17T10:40:42Z</time>
      </trkpt>
      <trkpt lat="43.09135" lon="6.02527">
        <ele>6.5283560752869</ele>
        <time>2017-04-17T10:40:45Z</time>
      </trkpt>
      <trkpt lat="43.09142" lon="6.02527">
        <ele>6.3804402351379</ele>
        <time>2017-04-17T10:40:48Z</time>
      </trkpt>
      <trkpt lat="43.09147" lon="6.02527">
        <ele>6.2318601608276</ele>
        <time>2017-04-17T10:40:50Z</time>
      </trkpt>
      <trkpt lat="43.09151" lon="6.02527">
        <ele>6.0856409072876</ele>
        <time>2017-04-17T10:40:52Z</time>
      </trkpt>
      <trkpt lat="43.09157" lon="6.02526">
        <ele>5.9002633094788</ele>
        <time>2017-04-17T10:40:55Z</time>
      </trkpt>
      <trkpt lat="43.09162" lon="6.02525">
        <ele>5.6916460990906</ele>
        <time>2017-04-17T10:40:57Z</time>
      </trkpt>
      <trkpt lat="43.09166" lon="6.02525">
        <ele>5.5050554275513</ele>
        <time>2017-04-17T10:40:59Z</time>
      </trkpt>
      <trkpt lat="43.09171" lon="6.02525">
        <ele>5.3265428543091</ele>
        <time>2017-04-17T10:41:01Z</time>
      </trkpt>
      <trkpt lat="43.09177" lon="6.02524">
        <ele>5.1534070968628</ele>
        <time>2017-04-17T10:41:04Z</time>
      </trkpt>
      <trkpt lat="43.09182" lon="6.02529">
        <ele>5.1060476303101</ele>
        <time>2017-04-17T10:41:07Z</time>
      </trkpt>
      <trkpt lat="43.09183" lon="6.02538">
        <ele>5.2373380661011</ele>
        <time>2017-04-17T10:41:10Z</time>
      </trkpt>
      <trkpt lat="43.09183" lon="6.02544">
        <ele>5.4945473670959</ele>
        <time>2017-04-17T10:41:12Z</time>
      </trkpt>
      <trkpt lat="43.09183" lon="6.0255">
        <ele>5.862416267395</ele>
        <time>2017-04-17T10:41:14Z</time>
      </trkpt>
      <trkpt lat="43.09182" lon="6.02558">
        <ele>6.3797965049744</ele>
        <time>2017-04-17T10:41:17Z</time>
      </trkpt>
      <trkpt lat="43.09181" lon="6.02563">
        <ele>6.9165053367615</ele>
        <time>2017-04-17T10:41:19Z</time>
      </trkpt>
      <trkpt lat="43.0918" lon="6.02571">
        <ele>7.4365434646606</ele>
        <time>2017-04-17T10:41:22Z</time>
      </trkpt>
      <trkpt lat="43.0918" lon="6.02576">
        <ele>7.9382600784302</ele>
        <time>2017-04-17T10:41:24Z</time>
      </trkpt>
      <trkpt lat="43.09179" lon="6.02581">
        <ele>8.4327793121338</ele>
        <time>2017-04-17T10:41:26Z</time>
      </trkpt>
      <trkpt lat="43.09179" lon="6.02588">
        <ele>8.8812503814697</ele>
        <time>2017-04-17T10:41:29Z</time>
      </trkpt>
      <trkpt lat="43.09179" lon="6.02595">
        <ele>9.2989654541016</ele>
        <time>2017-04-17T10:41:32Z</time>
      </trkpt>
      <trkpt lat="43.09179" lon="6.026">
        <ele>9.6339235305786</ele>
        <time>2017-04-17T10:41:34Z</time>
      </trkpt>
      <trkpt lat="43.09178" lon="6.02607">
        <ele>9.947639465332</ele>
        <time>2017-04-17T10:41:37Z</time>
      </trkpt>
      <trkpt lat="43.09178" lon="6.02611">
        <ele>10.212107658386</ele>
        <time>2017-04-17T10:41:39Z</time>
      </trkpt>
      <trkpt lat="43.09177" lon="6.02619">
        <ele>10.458177566528</ele>
        <time>2017-04-17T10:41:42Z</time>
      </trkpt>
      <trkpt lat="43.09179" lon="6.02623">
        <ele>10.671449661255</ele>
        <time>2017-04-17T10:41:44Z</time>
      </trkpt>
      <trkpt lat="43.09182" lon="6.02629">
        <ele>10.871240615845</ele>
        <time>2017-04-17T10:41:47Z</time>
      </trkpt>
      <trkpt lat="43.09184" lon="6.02633">
        <ele>11.028188705444</ele>
        <time>2017-04-17T10:41:49Z</time>
      </trkpt>
      <trkpt lat="43.09189" lon="6.02634">
        <ele>11.130920410156</ele>
        <time>2017-04-17T10:41:51Z</time>
      </trkpt>
      <trkpt lat="43.09195" lon="6.02633">
        <ele>11.133262634277</ele>
        <time>2017-04-17T10:41:53Z</time>
      </trkpt>
      <trkpt lat="43.09203" lon="6.0263">
        <ele>11.044787406921</ele>
        <time>2017-04-17T10:41:56Z</time>
      </trkpt>
      <trkpt lat="43.09208" lon="6.02628">
        <ele>10.884931564331</ele>
        <time>2017-04-17T10:41:58Z</time>
      </trkpt>
      <trkpt lat="43.09214" lon="6.02625">
        <ele>10.64337348938</ele>
        <time>2017-04-17T10:42:01Z</time>
      </trkpt>
      <trkpt lat="43.09221" lon="6.02621">
        <ele>10.347546577454</ele>
        <time>2017-04-17T10:42:04Z</time>
      </trkpt>
      <trkpt lat="43.09227" lon="6.02618">
        <ele>10.029565811157</ele>
        <time>2017-04-17T10:42:07Z</time>
      </trkpt>
      <trkpt lat="43.09231" lon="6.02616">
        <ele>9.7409811019897</ele>
        <time>2017-04-17T10:42:09Z</time>
      </trkpt>
      <trkpt lat="43.09236" lon="6.02611">
        <ele>9.4177989959717</ele>
        <time>2017-04-17T10:42:12Z</time>
      </trkpt>
      <trkpt lat="43.09239" lon="6.02607">
        <ele>9.1034364700317</ele>
        <time>2017-04-17T10:42:14Z</time>
      </trkpt>
      <trkpt lat="43.09243" lon="6.026">
        <ele>8.7703123092651</ele>
        <time>2017-04-17T10:42:17Z</time>
      </trkpt>
      <trkpt lat="43.09246" lon="6.02597">
        <ele>8.454216003418</ele>
        <time>2017-04-17T10:42:19Z</time>
      </trkpt>
      <trkpt lat="43.09249" lon="6.0259">
        <ele>8.0888366699219</ele>
        <time>2017-04-17T10:42:22Z</time>
      </trkpt>
      <trkpt lat="43.09252" lon="6.02586">
        <ele>7.7516469955444</ele>
        <time>2017-04-17T10:42:24Z</time>
      </trkpt>
      <trkpt lat="43.09255" lon="6.02582">
        <ele>7.4254965782166</ele>
        <time>2017-04-17T10:42:26Z</time>
      </trkpt>
      <trkpt lat="43.0926" lon="6.02576">
        <ele>7.1285843849182</ele>
        <time>2017-04-17T10:42:29Z</time>
      </trkpt>
      <trkpt lat="43.09262" lon="6.02571">
        <ele>6.8341851234436</ele>
        <time>2017-04-17T10:42:31Z</time>
      </trkpt>
      <trkpt lat="43.09264" lon="6.02564">
        <ele>6.55925989151</ele>
        <time>2017-04-17T10:42:34Z</time>
      </trkpt>
      <trkpt lat="43.09266" lon="6.02559">
        <ele>6.2924432754517</ele>
        <time>2017-04-17T10:42:36Z</time>
      </trkpt>
      <trkpt lat="43.09269" lon="6.02552">
        <ele>6.0051927566528</ele>
        <time>2017-04-17T10:42:39Z</time>
      </trkpt>
      <trkpt lat="43.0927" lon="6.02546">
        <ele>5.7348022460938</ele>
        <time>2017-04-17T10:42:41Z</time>
      </trkpt>
      <trkpt lat="43.09273" lon="6.02541">
        <ele>5.4670405387878</ele>
        <time>2017-04-17T10:42:44Z</time>
      </trkpt>
      <trkpt lat="43.09278" lon="6.02539">
        <ele>5.2504372596741</ele>
        <time>2017-04-17T10:42:47Z</time>
      </trkpt>
      <trkpt lat="43.0928" lon="6.02536">
        <ele>5.0542731285095</ele>
        <time>2017-04-17T10:42:49Z</time>
      </trkpt>
    </trkseg>
  </trk>
</gpx>